<?xml version="1.0" encoding="UTF-8" standalone="no" ?>
<gpx xmlns="http://www.topografix.com/GPX/1/1" xmlns:xsi="http://www.w3.org/2001/XMLSchema-instance" xsi:schemaLocation="http://www.topografix.com/GPX/1/1 http://www.topografix.com/GPX/1/1/gpx.xsd" version="1.1" creator="VisuGPX - https://www.visugpx.com">
  <metadata>
    <name>Erquy 35kms</name>
  </metadata>
  <trk>
    <name><![CDATA[2015-10-12-01-Erquy]]></name>
    <extensions>
      <line xmlns="http://www.topografix.com/GPX/gpx_style/0/2">
        <color>0000FF</color>
        <width>4</width>
      </line>
    </extensions>
    <trkseg>
      <trkpt lat="48.63282" lon="-2.46675">
        <ele>7.8</ele>
        <time>2015-10-12T12:56:16Z</time>
      </trkpt>
      <trkpt lat="48.63295" lon="-2.46673">
        <ele>8.5</ele>
        <time>2015-10-12T12:56:19Z</time>
      </trkpt>
      <trkpt lat="48.63335" lon="-2.4667">
        <ele>8.5</ele>
        <time>2015-10-12T12:56:28Z</time>
      </trkpt>
      <trkpt lat="48.63374" lon="-2.46673">
        <ele>8.5</ele>
        <time>2015-10-12T12:56:37Z</time>
      </trkpt>
      <trkpt lat="48.63412" lon="-2.46685">
        <ele>8.5</ele>
        <time>2015-10-12T12:56:46Z</time>
      </trkpt>
      <trkpt lat="48.6343" lon="-2.46692">
        <ele>8.5</ele>
        <time>2015-10-12T12:56:50Z</time>
      </trkpt>
      <trkpt lat="48.63456" lon="-2.46703">
        <ele>8.5</ele>
        <time>2015-10-12T12:56:56Z</time>
      </trkpt>
      <trkpt lat="48.63488" lon="-2.46708">
        <ele>8.5</ele>
        <time>2015-10-12T12:57:04Z</time>
      </trkpt>
      <trkpt lat="48.63503" lon="-2.4669">
        <ele>8.5</ele>
        <time>2015-10-12T12:57:14Z</time>
      </trkpt>
      <trkpt lat="48.63533" lon="-2.46693">
        <ele>8.5</ele>
        <time>2015-10-12T12:57:25Z</time>
      </trkpt>
      <trkpt lat="48.63567" lon="-2.46704">
        <ele>8.5</ele>
        <time>2015-10-12T12:57:34Z</time>
      </trkpt>
      <trkpt lat="48.63575" lon="-2.46655">
        <ele>8.6</ele>
        <time>2015-10-12T12:57:43Z</time>
      </trkpt>
      <trkpt lat="48.63579" lon="-2.46623">
        <ele>9</ele>
        <time>2015-10-12T12:57:49Z</time>
      </trkpt>
      <trkpt lat="48.63821" lon="-2.46729">
        <ele>31.1</ele>
      </trkpt>
      <trkpt lat="48.6397" lon="-2.46881">
        <ele>57.3</ele>
      </trkpt>
      <trkpt lat="48.63766" lon="-2.47401">
        <ele>60.9</ele>
      </trkpt>
      <trkpt lat="48.63793" lon="-2.4748">
        <ele>59.9</ele>
        <time>2015-10-12T13:25:05Z</time>
      </trkpt>
      <trkpt lat="48.63803" lon="-2.47526">
        <ele>60</ele>
        <time>2015-10-12T13:24:59Z</time>
      </trkpt>
      <trkpt lat="48.63814" lon="-2.47566">
        <ele>60</ele>
        <time>2015-10-12T13:24:53Z</time>
      </trkpt>
      <trkpt lat="48.63822" lon="-2.47595">
        <ele>60.1</ele>
        <time>2015-10-12T13:24:49Z</time>
      </trkpt>
      <trkpt lat="48.63832" lon="-2.47639">
        <ele>60.2</ele>
        <time>2015-10-12T13:24:43Z</time>
      </trkpt>
      <trkpt lat="48.63844" lon="-2.47686">
        <ele>60.5</ele>
        <time>2015-10-12T13:24:35Z</time>
      </trkpt>
      <trkpt lat="48.6385" lon="-2.47736">
        <ele>61.3</ele>
        <time>2015-10-12T13:24:23Z</time>
      </trkpt>
      <trkpt lat="48.63831" lon="-2.47746">
        <ele>61.6</ele>
        <time>2015-10-12T13:24:15Z</time>
      </trkpt>
      <trkpt lat="48.63805" lon="-2.47768">
        <ele>63.3</ele>
        <time>2015-10-12T13:23:38Z</time>
      </trkpt>
      <trkpt lat="48.63793" lon="-2.47801">
        <ele>64.1</ele>
        <time>2015-10-12T13:23:28Z</time>
      </trkpt>
      <trkpt lat="48.63789" lon="-2.47836">
        <ele>63.3</ele>
        <time>2015-10-12T13:23:20Z</time>
      </trkpt>
      <trkpt lat="48.63814" lon="-2.47864">
        <ele>60.7</ele>
        <time>2015-10-12T13:23:06Z</time>
      </trkpt>
      <trkpt lat="48.63839" lon="-2.47894">
        <ele>58.6</ele>
        <time>2015-10-12T13:22:53Z</time>
      </trkpt>
      <trkpt lat="48.63856" lon="-2.47932">
        <ele>57.8</ele>
        <time>2015-10-12T13:22:42Z</time>
      </trkpt>
      <trkpt lat="48.6387" lon="-2.47949">
        <ele>57.7</ele>
        <time>2015-10-12T13:22:36Z</time>
      </trkpt>
      <trkpt lat="48.63902" lon="-2.4795">
        <ele>57.8</ele>
        <time>2015-10-12T13:22:27Z</time>
      </trkpt>
      <trkpt lat="48.63919" lon="-2.47984">
        <ele>58.2</ele>
        <time>2015-10-12T13:22:13Z</time>
      </trkpt>
      <trkpt lat="48.63927" lon="-2.48015">
        <ele>58.5</ele>
        <time>2015-10-12T13:22:07Z</time>
      </trkpt>
      <trkpt lat="48.63939" lon="-2.48061">
        <ele>58.8</ele>
        <time>2015-10-12T13:22:00Z</time>
      </trkpt>
      <trkpt lat="48.63951" lon="-2.481">
        <ele>58.3</ele>
        <time>2015-10-12T13:21:54Z</time>
      </trkpt>
      <trkpt lat="48.63971" lon="-2.48139">
        <ele>56.6</ele>
        <time>2015-10-12T13:21:44Z</time>
      </trkpt>
      <trkpt lat="48.63988" lon="-2.48161">
        <ele>55.4</ele>
        <time>2015-10-12T13:21:36Z</time>
      </trkpt>
      <trkpt lat="48.64016" lon="-2.48183">
        <ele>54.8</ele>
        <time>2015-10-12T13:21:27Z</time>
      </trkpt>
      <trkpt lat="48.64045" lon="-2.48202">
        <ele>54.2</ele>
        <time>2015-10-12T13:21:20Z</time>
      </trkpt>
      <trkpt lat="48.64078" lon="-2.48223">
        <ele>52.9</ele>
        <time>2015-10-12T13:21:11Z</time>
      </trkpt>
      <trkpt lat="48.64096" lon="-2.48235">
        <ele>51.7</ele>
        <time>2015-10-12T13:21:05Z</time>
      </trkpt>
      <trkpt lat="48.64121" lon="-2.48256">
        <ele>50.5</ele>
        <time>2015-10-12T13:20:53Z</time>
      </trkpt>
      <trkpt lat="48.64148" lon="-2.48278">
        <ele>49.9</ele>
        <time>2015-10-12T13:20:36Z</time>
      </trkpt>
      <trkpt lat="48.64164" lon="-2.48298">
        <ele>49.4</ele>
        <time>2015-10-12T13:20:30Z</time>
      </trkpt>
      <trkpt lat="48.6419" lon="-2.48326">
        <ele>48.3</ele>
        <time>2015-10-12T13:20:21Z</time>
      </trkpt>
      <trkpt lat="48.6422" lon="-2.48342">
        <ele>47.3</ele>
        <time>2015-10-12T13:20:10Z</time>
      </trkpt>
      <trkpt lat="48.64245" lon="-2.48346">
        <ele>46.6</ele>
        <time>2015-10-12T13:19:58Z</time>
      </trkpt>
      <trkpt lat="48.64264" lon="-2.48324">
        <ele>46</ele>
        <time>2015-10-12T13:19:52Z</time>
      </trkpt>
      <trkpt lat="48.64287" lon="-2.48289">
        <ele>44.6</ele>
        <time>2015-10-12T13:19:42Z</time>
      </trkpt>
      <trkpt lat="48.64309" lon="-2.48259">
        <ele>43.9</ele>
        <time>2015-10-12T13:19:31Z</time>
      </trkpt>
      <trkpt lat="48.64327" lon="-2.4825">
        <ele>44.2</ele>
        <time>2015-10-12T13:19:24Z</time>
      </trkpt>
      <trkpt lat="48.64357" lon="-2.48241">
        <ele>45.3</ele>
        <time>2015-10-12T13:19:11Z</time>
      </trkpt>
      <trkpt lat="48.64386" lon="-2.48254">
        <ele>48.5</ele>
        <time>2015-10-12T13:18:46Z</time>
      </trkpt>
      <trkpt lat="48.64418" lon="-2.48261">
        <ele>50.2</ele>
        <time>2015-10-12T13:18:32Z</time>
      </trkpt>
      <trkpt lat="48.64423" lon="-2.48292">
        <ele>51.2</ele>
        <time>2015-10-12T13:18:27Z</time>
      </trkpt>
      <trkpt lat="48.64443" lon="-2.48333">
        <ele>53.1</ele>
        <time>2015-10-12T13:18:19Z</time>
      </trkpt>
      <trkpt lat="48.6445" lon="-2.48381">
        <ele>52.3</ele>
        <time>2015-10-12T13:17:43Z</time>
      </trkpt>
      <trkpt lat="48.64419" lon="-2.48386">
        <ele>51.7</ele>
        <time>2015-10-12T13:17:29Z</time>
      </trkpt>
      <trkpt lat="48.64398" lon="-2.48388">
        <ele>51</ele>
        <time>2015-10-12T13:17:20Z</time>
      </trkpt>
      <trkpt lat="48.64369" lon="-2.48388">
        <ele>48.3</ele>
        <time>2015-10-12T13:16:57Z</time>
      </trkpt>
      <trkpt lat="48.64339" lon="-2.48394">
        <ele>48.1</ele>
        <time>2015-10-12T13:16:44Z</time>
      </trkpt>
      <trkpt lat="48.64319" lon="-2.484">
        <ele>48.6</ele>
        <time>2015-10-12T13:16:38Z</time>
      </trkpt>
      <trkpt lat="48.64289" lon="-2.48383">
        <ele>49.7</ele>
        <time>2015-10-12T13:16:29Z</time>
      </trkpt>
      <trkpt lat="48.64255" lon="-2.4837">
        <ele>50.8</ele>
        <time>2015-10-12T13:16:20Z</time>
      </trkpt>
      <trkpt lat="48.64224" lon="-2.48345">
        <ele>52.3</ele>
        <time>2015-10-12T13:16:11Z</time>
      </trkpt>
      <trkpt lat="48.64204" lon="-2.48336">
        <ele>53.3</ele>
        <time>2015-10-12T13:16:06Z</time>
      </trkpt>
      <trkpt lat="48.64171" lon="-2.48307">
        <ele>54.5</ele>
        <time>2015-10-12T13:15:57Z</time>
      </trkpt>
      <trkpt lat="48.64145" lon="-2.48274">
        <ele>55.7</ele>
        <time>2015-10-12T13:15:51Z</time>
      </trkpt>
      <trkpt lat="48.6412" lon="-2.48253">
        <ele>56.5</ele>
        <time>2015-10-12T13:15:47Z</time>
      </trkpt>
      <trkpt lat="48.64089" lon="-2.48231">
        <ele>57.1</ele>
        <time>2015-10-12T13:15:41Z</time>
      </trkpt>
      <trkpt lat="48.64058" lon="-2.48209">
        <ele>57.7</ele>
        <time>2015-10-12T13:15:34Z</time>
      </trkpt>
      <trkpt lat="48.64019" lon="-2.48182">
        <ele>58.7</ele>
        <time>2015-10-12T13:15:28Z</time>
      </trkpt>
      <trkpt lat="48.63993" lon="-2.48161">
        <ele>58.9</ele>
        <time>2015-10-12T13:15:24Z</time>
      </trkpt>
      <trkpt lat="48.63967" lon="-2.48124">
        <ele>58.3</ele>
        <time>2015-10-12T13:15:17Z</time>
      </trkpt>
      <trkpt lat="48.63949" lon="-2.48083">
        <ele>57.4</ele>
        <time>2015-10-12T13:15:08Z</time>
      </trkpt>
      <trkpt lat="48.63947" lon="-2.48041">
        <ele>56.7</ele>
        <time>2015-10-12T13:14:52Z</time>
      </trkpt>
      <trkpt lat="48.63968" lon="-2.48033">
        <ele>55.7</ele>
        <time>2015-10-12T13:14:46Z</time>
      </trkpt>
      <trkpt lat="48.63998" lon="-2.48029">
        <ele>53.6</ele>
        <time>2015-10-12T13:14:37Z</time>
      </trkpt>
      <trkpt lat="48.6403" lon="-2.4803">
        <ele>51.8</ele>
        <time>2015-10-12T13:14:30Z</time>
      </trkpt>
      <trkpt lat="48.6405" lon="-2.48026">
        <ele>51.1</ele>
        <time>2015-10-12T13:14:26Z</time>
      </trkpt>
      <trkpt lat="48.64078" lon="-2.48005">
        <ele>50.4</ele>
        <time>2015-10-12T13:14:20Z</time>
      </trkpt>
      <trkpt lat="48.6411" lon="-2.47984">
        <ele>50.4</ele>
        <time>2015-10-12T13:14:14Z</time>
      </trkpt>
      <trkpt lat="48.64143" lon="-2.47964">
        <ele>50.5</ele>
        <time>2015-10-12T13:14:08Z</time>
      </trkpt>
      <trkpt lat="48.64167" lon="-2.47957">
        <ele>50.7</ele>
        <time>2015-10-12T13:14:02Z</time>
      </trkpt>
      <trkpt lat="48.64191" lon="-2.4793">
        <ele>51.1</ele>
        <time>2015-10-12T13:13:54Z</time>
      </trkpt>
      <trkpt lat="48.64188" lon="-2.47875">
        <ele>51.6</ele>
        <time>2015-10-12T13:13:46Z</time>
      </trkpt>
      <trkpt lat="48.64185" lon="-2.47842">
        <ele>51.6</ele>
        <time>2015-10-12T13:13:40Z</time>
      </trkpt>
      <trkpt lat="48.64165" lon="-2.47801">
        <ele>51.6</ele>
        <time>2015-10-12T13:13:30Z</time>
      </trkpt>
      <trkpt lat="48.6416" lon="-2.47757">
        <ele>51.4</ele>
        <time>2015-10-12T13:13:24Z</time>
      </trkpt>
      <trkpt lat="48.64156" lon="-2.4771">
        <ele>50.9</ele>
        <time>2015-10-12T13:13:17Z</time>
      </trkpt>
      <trkpt lat="48.64154" lon="-2.47675">
        <ele>50.7</ele>
        <time>2015-10-12T13:13:13Z</time>
      </trkpt>
      <trkpt lat="48.6416" lon="-2.47613">
        <ele>51.8</ele>
        <time>2015-10-12T13:13:08Z</time>
      </trkpt>
      <trkpt lat="48.6416" lon="-2.47565">
        <ele>53</ele>
        <time>2015-10-12T13:13:05Z</time>
      </trkpt>
      <trkpt lat="48.64159" lon="-2.47518">
        <ele>54.3</ele>
        <time>2015-10-12T13:13:02Z</time>
      </trkpt>
      <trkpt lat="48.64167" lon="-2.47475">
        <ele>55.6</ele>
        <time>2015-10-12T13:12:58Z</time>
      </trkpt>
      <trkpt lat="48.64168" lon="-2.47419">
        <ele>56.6</ele>
        <time>2015-10-12T13:12:52Z</time>
      </trkpt>
      <trkpt lat="48.64169" lon="-2.47373">
        <ele>57.1</ele>
        <time>2015-10-12T13:12:46Z</time>
      </trkpt>
      <trkpt lat="48.64169" lon="-2.47343">
        <ele>57.3</ele>
        <time>2015-10-12T13:12:42Z</time>
      </trkpt>
      <trkpt lat="48.6417" lon="-2.47293">
        <ele>57.4</ele>
        <time>2015-10-12T13:12:35Z</time>
      </trkpt>
      <trkpt lat="48.64171" lon="-2.4725">
        <ele>57.2</ele>
        <time>2015-10-12T13:12:24Z</time>
      </trkpt>
      <trkpt lat="48.64173" lon="-2.47205">
        <ele>56.9</ele>
        <time>2015-10-12T13:12:18Z</time>
      </trkpt>
      <trkpt lat="48.64174" lon="-2.47176">
        <ele>56.6</ele>
        <time>2015-10-12T13:12:14Z</time>
      </trkpt>
      <trkpt lat="48.64176" lon="-2.47126">
        <ele>55.8</ele>
        <time>2015-10-12T13:12:07Z</time>
      </trkpt>
      <trkpt lat="48.64188" lon="-2.4709">
        <ele>54.8</ele>
        <time>2015-10-12T13:11:58Z</time>
      </trkpt>
      <trkpt lat="48.6421" lon="-2.47094">
        <ele>54.2</ele>
        <time>2015-10-12T13:11:52Z</time>
      </trkpt>
      <trkpt lat="48.64241" lon="-2.4709">
        <ele>52.5</ele>
        <time>2015-10-12T13:11:39Z</time>
      </trkpt>
      <trkpt lat="48.64278" lon="-2.47084">
        <ele>51.4</ele>
        <time>2015-10-12T13:11:30Z</time>
      </trkpt>
      <trkpt lat="48.64304" lon="-2.47059">
        <ele>50.7</ele>
        <time>2015-10-12T13:11:23Z</time>
      </trkpt>
      <trkpt lat="48.64317" lon="-2.47032">
        <ele>50.3</ele>
        <time>2015-10-12T13:11:18Z</time>
      </trkpt>
      <trkpt lat="48.64319" lon="-2.46988">
        <ele>49.9</ele>
        <time>2015-10-12T13:11:12Z</time>
      </trkpt>
      <trkpt lat="48.64319" lon="-2.46943">
        <ele>49.6</ele>
        <time>2015-10-12T13:11:06Z</time>
      </trkpt>
      <trkpt lat="48.64319" lon="-2.46899">
        <ele>49.3</ele>
        <time>2015-10-12T13:11:00Z</time>
      </trkpt>
      <trkpt lat="48.64319" lon="-2.46869">
        <ele>49.2</ele>
        <time>2015-10-12T13:10:56Z</time>
      </trkpt>
      <trkpt lat="48.64318" lon="-2.46826">
        <ele>48.9</ele>
        <time>2015-10-12T13:10:50Z</time>
      </trkpt>
      <trkpt lat="48.64319" lon="-2.46772">
        <ele>48.5</ele>
        <time>2015-10-12T13:10:41Z</time>
      </trkpt>
      <trkpt lat="48.64334" lon="-2.46758">
        <ele>51.8</ele>
        <time>2015-10-12T13:28:39Z</time>
      </trkpt>
      <trkpt lat="48.64372" lon="-2.46758">
        <ele>51.2</ele>
        <time>2015-10-12T13:28:45Z</time>
      </trkpt>
      <trkpt lat="48.64421" lon="-2.46759">
        <ele>50.4</ele>
        <time>2015-10-12T13:28:51Z</time>
      </trkpt>
      <trkpt lat="48.64472" lon="-2.46763">
        <ele>49.2</ele>
        <time>2015-10-12T13:28:57Z</time>
      </trkpt>
      <trkpt lat="48.6448" lon="-2.46739">
        <ele>48.4</ele>
        <time>2015-10-12T13:29:01Z</time>
      </trkpt>
      <trkpt lat="48.64471" lon="-2.46682">
        <ele>47.4</ele>
        <time>2015-10-12T13:29:07Z</time>
      </trkpt>
      <trkpt lat="48.64461" lon="-2.46619">
        <ele>46.7</ele>
        <time>2015-10-12T13:29:13Z</time>
      </trkpt>
      <trkpt lat="48.64454" lon="-2.46575">
        <ele>46.3</ele>
        <time>2015-10-12T13:29:17Z</time>
      </trkpt>
      <trkpt lat="48.64443" lon="-2.46507">
        <ele>45.8</ele>
        <time>2015-10-12T13:29:23Z</time>
      </trkpt>
      <trkpt lat="48.64433" lon="-2.46439">
        <ele>45.3</ele>
        <time>2015-10-12T13:29:29Z</time>
      </trkpt>
      <trkpt lat="48.64423" lon="-2.46375">
        <ele>44.9</ele>
        <time>2015-10-12T13:29:35Z</time>
      </trkpt>
      <trkpt lat="48.64411" lon="-2.46349">
        <ele>44.6</ele>
        <time>2015-10-12T13:29:42Z</time>
      </trkpt>
      <trkpt lat="48.6438" lon="-2.46348">
        <ele>44.4</ele>
        <time>2015-10-12T13:29:50Z</time>
      </trkpt>
      <trkpt lat="48.64351" lon="-2.46343">
        <ele>44.4</ele>
        <time>2015-10-12T13:29:56Z</time>
      </trkpt>
      <trkpt lat="48.64323" lon="-2.46327">
        <ele>44.6</ele>
        <time>2015-10-12T13:30:04Z</time>
      </trkpt>
      <trkpt lat="48.64325" lon="-2.46296">
        <ele>44.7</ele>
        <time>2015-10-12T13:30:08Z</time>
      </trkpt>
      <trkpt lat="48.64329" lon="-2.46238">
        <ele>44.8</ele>
        <time>2015-10-12T13:30:14Z</time>
      </trkpt>
      <trkpt lat="48.64334" lon="-2.46175">
        <ele>44.5</ele>
        <time>2015-10-12T13:30:20Z</time>
      </trkpt>
      <trkpt lat="48.64337" lon="-2.4613">
        <ele>43.8</ele>
        <time>2015-10-12T13:30:24Z</time>
      </trkpt>
      <trkpt lat="48.64343" lon="-2.46059">
        <ele>42.4</ele>
        <time>2015-10-12T13:30:30Z</time>
      </trkpt>
      <trkpt lat="48.64347" lon="-2.45996">
        <ele>40.6</ele>
        <time>2015-10-12T13:30:36Z</time>
      </trkpt>
      <trkpt lat="48.64311" lon="-2.45985">
        <ele>38.8</ele>
        <time>2015-10-12T13:30:45Z</time>
      </trkpt>
      <trkpt lat="48.64291" lon="-2.45973">
        <ele>38.7</ele>
        <time>2015-10-12T13:30:52Z</time>
      </trkpt>
      <trkpt lat="48.643" lon="-2.45923">
        <ele>39</ele>
        <time>2015-10-12T13:31:01Z</time>
      </trkpt>
      <trkpt lat="48.64302" lon="-2.45874">
        <ele>40.3</ele>
        <time>2015-10-12T13:31:11Z</time>
      </trkpt>
      <trkpt lat="48.64307" lon="-2.45821">
        <ele>41.6</ele>
        <time>2015-10-12T13:31:20Z</time>
      </trkpt>
      <trkpt lat="48.64307" lon="-2.45785">
        <ele>42.3</ele>
        <time>2015-10-12T13:31:26Z</time>
      </trkpt>
      <trkpt lat="48.64332" lon="-2.4576">
        <ele>42.9</ele>
        <time>2015-10-12T13:31:34Z</time>
      </trkpt>
      <trkpt lat="48.64361" lon="-2.45758">
        <ele>42.9</ele>
        <time>2015-10-12T13:31:40Z</time>
      </trkpt>
      <trkpt lat="48.64382" lon="-2.45759">
        <ele>42.7</ele>
        <time>2015-10-12T13:31:44Z</time>
      </trkpt>
      <trkpt lat="48.64415" lon="-2.45761">
        <ele>42</ele>
        <time>2015-10-12T13:31:51Z</time>
      </trkpt>
      <trkpt lat="48.64425" lon="-2.4571">
        <ele>41.1</ele>
        <time>2015-10-12T13:31:59Z</time>
      </trkpt>
      <trkpt lat="48.64426" lon="-2.45662">
        <ele>40.7</ele>
        <time>2015-10-12T13:32:06Z</time>
      </trkpt>
      <trkpt lat="48.64428" lon="-2.45632">
        <ele>40.4</ele>
        <time>2015-10-12T13:32:12Z</time>
      </trkpt>
      <trkpt lat="48.64404" lon="-2.45618">
        <ele>40.1</ele>
        <time>2015-10-12T13:32:27Z</time>
      </trkpt>
      <trkpt lat="48.64369" lon="-2.45616">
        <ele>40.8</ele>
        <time>2015-10-12T13:32:36Z</time>
      </trkpt>
      <trkpt lat="48.64344" lon="-2.45614">
        <ele>41.4</ele>
        <time>2015-10-12T13:32:42Z</time>
      </trkpt>
      <trkpt lat="48.64308" lon="-2.45611">
        <ele>42.7</ele>
        <time>2015-10-12T13:32:51Z</time>
      </trkpt>
      <trkpt lat="48.64272" lon="-2.45608">
        <ele>44.3</ele>
        <time>2015-10-12T13:33:00Z</time>
      </trkpt>
      <trkpt lat="48.64238" lon="-2.45604">
        <ele>46.1</ele>
        <time>2015-10-12T13:33:09Z</time>
      </trkpt>
      <trkpt lat="48.64217" lon="-2.45596">
        <ele>47.7</ele>
        <time>2015-10-12T13:33:16Z</time>
      </trkpt>
      <trkpt lat="48.64215" lon="-2.45551">
        <ele>49.1</ele>
        <time>2015-10-12T13:33:25Z</time>
      </trkpt>
      <trkpt lat="48.64234" lon="-2.45574">
        <ele>50.6</ele>
        <time>2015-10-12T13:33:53Z</time>
      </trkpt>
      <trkpt lat="48.64266" lon="-2.45568">
        <ele>50</ele>
        <time>2015-10-12T13:34:03Z</time>
      </trkpt>
      <trkpt lat="48.64286" lon="-2.45571">
        <ele>49.5</ele>
        <time>2015-10-12T13:34:07Z</time>
      </trkpt>
      <trkpt lat="48.64314" lon="-2.45569">
        <ele>48.5</ele>
        <time>2015-10-12T13:34:13Z</time>
      </trkpt>
      <trkpt lat="48.64344" lon="-2.45568">
        <ele>47.5</ele>
        <time>2015-10-12T13:34:19Z</time>
      </trkpt>
      <trkpt lat="48.64367" lon="-2.45574">
        <ele>46.7</ele>
        <time>2015-10-12T13:34:23Z</time>
      </trkpt>
      <trkpt lat="48.64402" lon="-2.45581">
        <ele>45.4</ele>
        <time>2015-10-12T13:34:29Z</time>
      </trkpt>
      <trkpt lat="48.64434" lon="-2.45577">
        <ele>43.8</ele>
        <time>2015-10-12T13:34:36Z</time>
      </trkpt>
      <trkpt lat="48.64467" lon="-2.45575">
        <ele>42.3</ele>
        <time>2015-10-12T13:34:42Z</time>
      </trkpt>
      <trkpt lat="48.64487" lon="-2.45581">
        <ele>41.5</ele>
        <time>2015-10-12T13:34:46Z</time>
      </trkpt>
      <trkpt lat="48.64526" lon="-2.45588">
        <ele>40.5</ele>
        <time>2015-10-12T13:34:52Z</time>
      </trkpt>
      <trkpt lat="48.64564" lon="-2.45589">
        <ele>39.5</ele>
        <time>2015-10-12T13:34:58Z</time>
      </trkpt>
      <trkpt lat="48.64587" lon="-2.45581">
        <ele>38.5</ele>
        <time>2015-10-12T13:35:03Z</time>
      </trkpt>
      <trkpt lat="48.64613" lon="-2.45559">
        <ele>37</ele>
        <time>2015-10-12T13:35:10Z</time>
      </trkpt>
      <trkpt lat="48.64638" lon="-2.45519">
        <ele>35.3</ele>
        <time>2015-10-12T13:35:17Z</time>
      </trkpt>
      <trkpt lat="48.64664" lon="-2.45477">
        <ele>33.5</ele>
        <time>2015-10-12T13:35:23Z</time>
      </trkpt>
      <trkpt lat="48.64685" lon="-2.45447">
        <ele>31.9</ele>
        <time>2015-10-12T13:35:27Z</time>
      </trkpt>
      <trkpt lat="48.64719" lon="-2.45413">
        <ele>29.2</ele>
        <time>2015-10-12T13:35:33Z</time>
      </trkpt>
      <trkpt lat="48.64737" lon="-2.45379">
        <ele>24.7</ele>
        <time>2015-10-12T13:35:42Z</time>
      </trkpt>
      <trkpt lat="48.64705" lon="-2.45361">
        <ele>21.9</ele>
        <time>2015-10-12T13:35:50Z</time>
      </trkpt>
      <trkpt lat="48.64687" lon="-2.45345">
        <ele>20.8</ele>
        <time>2015-10-12T13:35:55Z</time>
      </trkpt>
      <trkpt lat="48.64707" lon="-2.45298">
        <ele>19.8</ele>
        <time>2015-10-12T13:36:04Z</time>
      </trkpt>
      <trkpt lat="48.64718" lon="-2.45244">
        <ele>20.4</ele>
        <time>2015-10-12T13:36:13Z</time>
      </trkpt>
      <trkpt lat="48.64725" lon="-2.45212">
        <ele>21</ele>
        <time>2015-10-12T13:36:18Z</time>
      </trkpt>
      <trkpt lat="48.64746" lon="-2.45173">
        <ele>21.5</ele>
        <time>2015-10-12T13:36:24Z</time>
      </trkpt>
      <trkpt lat="48.64753" lon="-2.45126">
        <ele>21.7</ele>
        <time>2015-10-12T13:36:30Z</time>
      </trkpt>
      <trkpt lat="48.64752" lon="-2.4508">
        <ele>22</ele>
        <time>2015-10-12T13:36:36Z</time>
      </trkpt>
      <trkpt lat="48.64753" lon="-2.45048">
        <ele>22.3</ele>
        <time>2015-10-12T13:36:40Z</time>
      </trkpt>
      <trkpt lat="48.64773" lon="-2.45013">
        <ele>23.1</ele>
        <time>2015-10-12T13:36:47Z</time>
      </trkpt>
      <trkpt lat="48.64805" lon="-2.44998">
        <ele>23.4</ele>
        <time>2015-10-12T13:36:53Z</time>
      </trkpt>
      <trkpt lat="48.64827" lon="-2.44963">
        <ele>22.8</ele>
        <time>2015-10-12T13:36:57Z</time>
      </trkpt>
      <trkpt lat="48.64843" lon="-2.44907">
        <ele>21.7</ele>
        <time>2015-10-12T13:37:03Z</time>
      </trkpt>
      <trkpt lat="48.6482" lon="-2.44875">
        <ele>19.8</ele>
        <time>2015-10-12T13:37:14Z</time>
      </trkpt>
      <trkpt lat="48.64783" lon="-2.44868">
        <ele>19.1</ele>
        <time>2015-10-12T13:37:23Z</time>
      </trkpt>
      <trkpt lat="48.64763" lon="-2.44865">
        <ele>19.3</ele>
        <time>2015-10-12T13:37:29Z</time>
      </trkpt>
      <trkpt lat="48.64734" lon="-2.44837">
        <ele>20.2</ele>
        <time>2015-10-12T13:37:38Z</time>
      </trkpt>
      <trkpt lat="48.64711" lon="-2.44796">
        <ele>21.5</ele>
        <time>2015-10-12T13:37:47Z</time>
      </trkpt>
      <trkpt lat="48.64701" lon="-2.44749">
        <ele>23.2</ele>
        <time>2015-10-12T13:37:56Z</time>
      </trkpt>
      <trkpt lat="48.64689" lon="-2.4472">
        <ele>24.3</ele>
        <time>2015-10-12T13:38:02Z</time>
      </trkpt>
      <trkpt lat="48.64667" lon="-2.44677">
        <ele>26.2</ele>
        <time>2015-10-12T13:38:11Z</time>
      </trkpt>
      <trkpt lat="48.6465" lon="-2.44641">
        <ele>28</ele>
        <time>2015-10-12T13:38:20Z</time>
      </trkpt>
      <trkpt lat="48.64636" lon="-2.44619">
        <ele>29.7</ele>
        <time>2015-10-12T13:38:28Z</time>
      </trkpt>
      <trkpt lat="48.64616" lon="-2.44584">
        <ele>31.3</ele>
        <time>2015-10-12T13:38:37Z</time>
      </trkpt>
      <trkpt lat="48.64601" lon="-2.44543">
        <ele>32.9</ele>
        <time>2015-10-12T13:38:46Z</time>
      </trkpt>
      <trkpt lat="48.6458" lon="-2.44495">
        <ele>34.4</ele>
        <time>2015-10-12T13:38:55Z</time>
      </trkpt>
      <trkpt lat="48.64593" lon="-2.44478">
        <ele>35.1</ele>
        <time>2015-10-12T13:39:01Z</time>
      </trkpt>
      <trkpt lat="48.6462" lon="-2.44463">
        <ele>35.6</ele>
        <time>2015-10-12T13:39:12Z</time>
      </trkpt>
      <trkpt lat="48.64607" lon="-2.4442">
        <ele>36.8</ele>
        <time>2015-10-12T13:39:37Z</time>
      </trkpt>
      <trkpt lat="48.64594" lon="-2.44395">
        <ele>38.1</ele>
        <time>2015-10-12T13:39:44Z</time>
      </trkpt>
      <trkpt lat="48.6457" lon="-2.44364">
        <ele>40.6</ele>
        <time>2015-10-12T13:39:54Z</time>
      </trkpt>
      <trkpt lat="48.6455" lon="-2.44332">
        <ele>42.9</ele>
        <time>2015-10-12T13:40:03Z</time>
      </trkpt>
      <trkpt lat="48.64548" lon="-2.44287">
        <ele>45.2</ele>
        <time>2015-10-12T13:40:12Z</time>
      </trkpt>
      <trkpt lat="48.64553" lon="-2.44255">
        <ele>46.5</ele>
        <time>2015-10-12T13:40:18Z</time>
      </trkpt>
      <trkpt lat="48.6456" lon="-2.44202">
        <ele>47.8</ele>
        <time>2015-10-12T13:40:27Z</time>
      </trkpt>
      <trkpt lat="48.64565" lon="-2.44145">
        <ele>48.8</ele>
        <time>2015-10-12T13:40:36Z</time>
      </trkpt>
      <trkpt lat="48.64565" lon="-2.44086">
        <ele>49.6</ele>
        <time>2015-10-12T13:40:45Z</time>
      </trkpt>
      <trkpt lat="48.64565" lon="-2.44058">
        <ele>49.9</ele>
        <time>2015-10-12T13:40:49Z</time>
      </trkpt>
      <trkpt lat="48.64565" lon="-2.44014">
        <ele>50.2</ele>
        <time>2015-10-12T13:40:55Z</time>
      </trkpt>
      <trkpt lat="48.64566" lon="-2.43967">
        <ele>50.4</ele>
        <time>2015-10-12T13:41:01Z</time>
      </trkpt>
      <trkpt lat="48.64566" lon="-2.43932">
        <ele>50.2</ele>
        <time>2015-10-12T13:41:06Z</time>
      </trkpt>
      <trkpt lat="48.6456" lon="-2.43885">
        <ele>49.9</ele>
        <time>2015-10-12T13:41:12Z</time>
      </trkpt>
      <trkpt lat="48.64542" lon="-2.43846">
        <ele>49.6</ele>
        <time>2015-10-12T13:41:18Z</time>
      </trkpt>
      <trkpt lat="48.64523" lon="-2.43807">
        <ele>49.3</ele>
        <time>2015-10-12T13:41:24Z</time>
      </trkpt>
      <trkpt lat="48.64526" lon="-2.43783">
        <ele>47.8</ele>
      </trkpt>
      <trkpt lat="48.64545" lon="-2.43762">
        <ele>48.9</ele>
        <time>2015-10-12T13:42:14Z</time>
      </trkpt>
      <trkpt lat="48.64573" lon="-2.43726">
        <ele>48.7</ele>
        <time>2015-10-12T13:42:23Z</time>
      </trkpt>
      <trkpt lat="48.64591" lon="-2.43702">
        <ele>48.6</ele>
        <time>2015-10-12T13:42:29Z</time>
      </trkpt>
      <trkpt lat="48.64607" lon="-2.43665">
        <ele>48.3</ele>
        <time>2015-10-12T13:42:38Z</time>
      </trkpt>
      <trkpt lat="48.64623" lon="-2.43626">
        <ele>47.8</ele>
        <time>2015-10-12T13:42:48Z</time>
      </trkpt>
      <trkpt lat="48.64591" lon="-2.43613">
        <ele>47.4</ele>
        <time>2015-10-12T13:42:58Z</time>
      </trkpt>
      <trkpt lat="48.64575" lon="-2.43602">
        <ele>47.2</ele>
        <time>2015-10-12T13:43:04Z</time>
      </trkpt>
      <trkpt lat="48.64548" lon="-2.43588">
        <ele>47.1</ele>
        <time>2015-10-12T13:43:11Z</time>
      </trkpt>
      <trkpt lat="48.64511" lon="-2.43595">
        <ele>47.2</ele>
        <time>2015-10-12T13:43:20Z</time>
      </trkpt>
      <trkpt lat="48.64479" lon="-2.43596">
        <ele>47.5</ele>
        <time>2015-10-12T13:43:27Z</time>
      </trkpt>
      <trkpt lat="48.6446" lon="-2.43585">
        <ele>47.6</ele>
        <time>2015-10-12T13:43:31Z</time>
      </trkpt>
      <trkpt lat="48.6445" lon="-2.43545">
        <ele>47.8</ele>
        <time>2015-10-12T13:43:45Z</time>
      </trkpt>
      <trkpt lat="48.6447" lon="-2.43508">
        <ele>47.9</ele>
        <time>2015-10-12T13:43:53Z</time>
      </trkpt>
      <trkpt lat="48.64487" lon="-2.43487">
        <ele>47.9</ele>
        <time>2015-10-12T13:43:57Z</time>
      </trkpt>
      <trkpt lat="48.64509" lon="-2.43453">
        <ele>47.9</ele>
        <time>2015-10-12T13:44:03Z</time>
      </trkpt>
      <trkpt lat="48.64536" lon="-2.43441">
        <ele>47.9</ele>
        <time>2015-10-12T13:44:09Z</time>
      </trkpt>
      <trkpt lat="48.64565" lon="-2.43441">
        <ele>48</ele>
        <time>2015-10-12T13:44:15Z</time>
      </trkpt>
      <trkpt lat="48.64584" lon="-2.43438">
        <ele>48.1</ele>
        <time>2015-10-12T13:44:19Z</time>
      </trkpt>
      <trkpt lat="48.64614" lon="-2.43408">
        <ele>48.5</ele>
        <time>2015-10-12T13:44:27Z</time>
      </trkpt>
      <trkpt lat="48.64627" lon="-2.4336">
        <ele>48.7</ele>
        <time>2015-10-12T13:44:33Z</time>
      </trkpt>
      <trkpt lat="48.64627" lon="-2.43319">
        <ele>48.7</ele>
        <time>2015-10-12T13:44:37Z</time>
      </trkpt>
      <trkpt lat="48.64641" lon="-2.43271">
        <ele>47.5</ele>
        <time>2015-10-12T13:44:43Z</time>
      </trkpt>
      <trkpt lat="48.64683" lon="-2.43256">
        <ele>44.9</ele>
        <time>2015-10-12T13:44:49Z</time>
      </trkpt>
      <trkpt lat="48.64722" lon="-2.43224">
        <ele>41.5</ele>
        <time>2015-10-12T13:44:54Z</time>
      </trkpt>
      <trkpt lat="48.6474" lon="-2.43207">
        <ele>39.9</ele>
        <time>2015-10-12T13:44:56Z</time>
      </trkpt>
      <trkpt lat="48.64763" lon="-2.43179">
        <ele>37.3</ele>
        <time>2015-10-12T13:44:59Z</time>
      </trkpt>
      <trkpt lat="48.6479" lon="-2.43158">
        <ele>34.7</ele>
        <time>2015-10-12T13:45:02Z</time>
      </trkpt>
      <trkpt lat="48.64822" lon="-2.43118">
        <ele>30.8</ele>
        <time>2015-10-12T13:45:07Z</time>
      </trkpt>
      <trkpt lat="48.6482" lon="-2.43084">
        <ele>28.2</ele>
        <time>2015-10-12T13:45:11Z</time>
      </trkpt>
      <trkpt lat="48.64811" lon="-2.43043">
        <ele>25</ele>
        <time>2015-10-12T13:45:19Z</time>
      </trkpt>
      <trkpt lat="48.64816" lon="-2.42992">
        <ele>23</ele>
        <time>2015-10-12T13:45:25Z</time>
      </trkpt>
      <trkpt lat="48.64824" lon="-2.42958">
        <ele>21.8</ele>
        <time>2015-10-12T13:45:29Z</time>
      </trkpt>
      <trkpt lat="48.64836" lon="-2.42903">
        <ele>19.8</ele>
        <time>2015-10-12T13:45:35Z</time>
      </trkpt>
      <trkpt lat="48.64847" lon="-2.42847">
        <ele>17.6</ele>
        <time>2015-10-12T13:45:41Z</time>
      </trkpt>
      <trkpt lat="48.64831" lon="-2.42804">
        <ele>15.4</ele>
        <time>2015-10-12T13:45:48Z</time>
      </trkpt>
      <trkpt lat="48.64819" lon="-2.4278">
        <ele>14.4</ele>
        <time>2015-10-12T13:45:53Z</time>
      </trkpt>
      <trkpt lat="48.64804" lon="-2.42742">
        <ele>13.7</ele>
        <time>2015-10-12T13:45:59Z</time>
      </trkpt>
      <trkpt lat="48.64793" lon="-2.42697">
        <ele>13.2</ele>
        <time>2015-10-12T13:46:05Z</time>
      </trkpt>
      <trkpt lat="48.64785" lon="-2.42665">
        <ele>12.8</ele>
        <time>2015-10-12T13:46:09Z</time>
      </trkpt>
      <trkpt lat="48.64774" lon="-2.4262">
        <ele>12.3</ele>
        <time>2015-10-12T13:46:15Z</time>
      </trkpt>
      <trkpt lat="48.64764" lon="-2.42577">
        <ele>12</ele>
        <time>2015-10-12T13:46:21Z</time>
      </trkpt>
      <trkpt lat="48.64753" lon="-2.42534">
        <ele>11.7</ele>
        <time>2015-10-12T13:46:27Z</time>
      </trkpt>
      <trkpt lat="48.64746" lon="-2.42503">
        <ele>11.6</ele>
        <time>2015-10-12T13:46:31Z</time>
      </trkpt>
      <trkpt lat="48.64734" lon="-2.42458">
        <ele>11.3</ele>
        <time>2015-10-12T13:46:37Z</time>
      </trkpt>
      <trkpt lat="48.64722" lon="-2.42412">
        <ele>11</ele>
        <time>2015-10-12T13:46:43Z</time>
      </trkpt>
      <trkpt lat="48.6471" lon="-2.42369">
        <ele>10.8</ele>
        <time>2015-10-12T13:46:49Z</time>
      </trkpt>
      <trkpt lat="48.64703" lon="-2.4234">
        <ele>10.7</ele>
        <time>2015-10-12T13:46:53Z</time>
      </trkpt>
      <trkpt lat="48.64691" lon="-2.42295">
        <ele>10.9</ele>
        <time>2015-10-12T13:47:00Z</time>
      </trkpt>
      <trkpt lat="48.6468" lon="-2.42251">
        <ele>11.4</ele>
        <time>2015-10-12T13:47:07Z</time>
      </trkpt>
      <trkpt lat="48.64674" lon="-2.42224">
        <ele>11.6</ele>
        <time>2015-10-12T13:47:11Z</time>
      </trkpt>
      <trkpt lat="48.64663" lon="-2.42177">
        <ele>12.8</ele>
        <time>2015-10-12T13:47:24Z</time>
      </trkpt>
      <trkpt lat="48.64639" lon="-2.42154">
        <ele>15.3</ele>
        <time>2015-10-12T13:50:24Z</time>
      </trkpt>
      <trkpt lat="48.64609" lon="-2.42149">
        <ele>18.5</ele>
        <time>2015-10-12T13:50:34Z</time>
      </trkpt>
      <trkpt lat="48.6459" lon="-2.42155">
        <ele>21.9</ele>
        <time>2015-10-12T13:50:43Z</time>
      </trkpt>
      <trkpt lat="48.64568" lon="-2.42185">
        <ele>25.5</ele>
        <time>2015-10-12T13:50:57Z</time>
      </trkpt>
      <trkpt lat="48.64546" lon="-2.42215">
        <ele>27.4</ele>
        <time>2015-10-12T13:51:08Z</time>
      </trkpt>
      <trkpt lat="48.64525" lon="-2.42232">
        <ele>28.6</ele>
        <time>2015-10-12T13:51:16Z</time>
      </trkpt>
      <trkpt lat="48.64492" lon="-2.4224">
        <ele>29.9</ele>
        <time>2015-10-12T13:51:25Z</time>
      </trkpt>
      <trkpt lat="48.6446" lon="-2.42245">
        <ele>30.9</ele>
        <time>2015-10-12T13:51:35Z</time>
      </trkpt>
      <trkpt lat="48.64426" lon="-2.42248">
        <ele>32.3</ele>
        <time>2015-10-12T13:51:45Z</time>
      </trkpt>
      <trkpt lat="48.64403" lon="-2.42252">
        <ele>33.2</ele>
        <time>2015-10-12T13:51:51Z</time>
      </trkpt>
      <trkpt lat="48.6437" lon="-2.42274">
        <ele>34.3</ele>
        <time>2015-10-12T13:51:59Z</time>
      </trkpt>
      <trkpt lat="48.64344" lon="-2.42302">
        <ele>35.5</ele>
        <time>2015-10-12T13:52:06Z</time>
      </trkpt>
      <trkpt lat="48.64319" lon="-2.4233">
        <ele>37.3</ele>
        <time>2015-10-12T13:52:13Z</time>
      </trkpt>
      <trkpt lat="48.64299" lon="-2.42346">
        <ele>39</ele>
        <time>2015-10-12T13:52:19Z</time>
      </trkpt>
      <trkpt lat="48.64273" lon="-2.42365">
        <ele>41.3</ele>
        <time>2015-10-12T13:52:28Z</time>
      </trkpt>
      <trkpt lat="48.64242" lon="-2.42387">
        <ele>42.9</ele>
        <time>2015-10-12T13:52:37Z</time>
      </trkpt>
      <trkpt lat="48.64224" lon="-2.42399">
        <ele>43.3</ele>
        <time>2015-10-12T13:52:41Z</time>
      </trkpt>
      <trkpt lat="48.64193" lon="-2.4242">
        <ele>43.8</ele>
        <time>2015-10-12T13:52:47Z</time>
      </trkpt>
      <trkpt lat="48.64163" lon="-2.42436">
        <ele>44.1</ele>
        <time>2015-10-12T13:52:53Z</time>
      </trkpt>
      <trkpt lat="48.64131" lon="-2.42452">
        <ele>44.4</ele>
        <time>2015-10-12T13:53:01Z</time>
      </trkpt>
      <trkpt lat="48.64112" lon="-2.4247">
        <ele>45</ele>
        <time>2015-10-12T13:53:07Z</time>
      </trkpt>
      <trkpt lat="48.64085" lon="-2.42497">
        <ele>46.5</ele>
        <time>2015-10-12T13:53:19Z</time>
      </trkpt>
      <trkpt lat="48.64054" lon="-2.42524">
        <ele>48</ele>
        <time>2015-10-12T13:53:28Z</time>
      </trkpt>
      <trkpt lat="48.64033" lon="-2.42542">
        <ele>49.1</ele>
        <time>2015-10-12T13:53:34Z</time>
      </trkpt>
      <trkpt lat="48.64002" lon="-2.42567">
        <ele>50.8</ele>
        <time>2015-10-12T13:53:43Z</time>
      </trkpt>
      <trkpt lat="48.63973" lon="-2.42592">
        <ele>52.4</ele>
        <time>2015-10-12T13:53:52Z</time>
      </trkpt>
      <trkpt lat="48.63945" lon="-2.42617">
        <ele>54</ele>
        <time>2015-10-12T13:54:02Z</time>
      </trkpt>
      <trkpt lat="48.63925" lon="-2.4263">
        <ele>55</ele>
        <time>2015-10-12T13:54:08Z</time>
      </trkpt>
      <trkpt lat="48.63894" lon="-2.42632">
        <ele>56.3</ele>
        <time>2015-10-12T13:54:18Z</time>
      </trkpt>
      <trkpt lat="48.63856" lon="-2.42638">
        <ele>56.9</ele>
        <time>2015-10-12T13:54:27Z</time>
      </trkpt>
      <trkpt lat="48.63831" lon="-2.42663">
        <ele>57.3</ele>
        <time>2015-10-12T13:54:34Z</time>
      </trkpt>
      <trkpt lat="48.63822" lon="-2.42641">
        <ele>57.7</ele>
        <time>2015-10-12T13:54:47Z</time>
      </trkpt>
      <trkpt lat="48.63815" lon="-2.42588">
        <ele>57.8</ele>
        <time>2015-10-12T13:54:59Z</time>
      </trkpt>
      <trkpt lat="48.63804" lon="-2.42531">
        <ele>57.9</ele>
        <time>2015-10-12T13:55:08Z</time>
      </trkpt>
      <trkpt lat="48.63794" lon="-2.42501">
        <ele>57.9</ele>
        <time>2015-10-12T13:55:13Z</time>
      </trkpt>
      <trkpt lat="48.63778" lon="-2.42446">
        <ele>58.1</ele>
        <time>2015-10-12T13:55:22Z</time>
      </trkpt>
      <trkpt lat="48.63767" lon="-2.42394">
        <ele>58.9</ele>
        <time>2015-10-12T13:55:30Z</time>
      </trkpt>
      <trkpt lat="48.63758" lon="-2.42353">
        <ele>59.3</ele>
        <time>2015-10-12T13:55:36Z</time>
      </trkpt>
      <trkpt lat="48.63754" lon="-2.42325">
        <ele>59.5</ele>
        <time>2015-10-12T13:55:40Z</time>
      </trkpt>
      <trkpt lat="48.63748" lon="-2.42271">
        <ele>59.7</ele>
        <time>2015-10-12T13:55:48Z</time>
      </trkpt>
      <trkpt lat="48.63738" lon="-2.42219">
        <ele>60</ele>
        <time>2015-10-12T13:55:56Z</time>
      </trkpt>
      <trkpt lat="48.63738" lon="-2.42186">
        <ele>59.7</ele>
        <time>2015-10-12T13:56:01Z</time>
      </trkpt>
      <trkpt lat="48.6376" lon="-2.42142">
        <ele>56.9</ele>
        <time>2015-10-12T13:56:09Z</time>
      </trkpt>
      <trkpt lat="48.63779" lon="-2.42094">
        <ele>53.9</ele>
        <time>2015-10-12T13:56:15Z</time>
      </trkpt>
      <trkpt lat="48.63793" lon="-2.42041">
        <ele>50.6</ele>
        <time>2015-10-12T13:56:21Z</time>
      </trkpt>
      <trkpt lat="48.63784" lon="-2.42011">
        <ele>47.5</ele>
        <time>2015-10-12T13:56:26Z</time>
      </trkpt>
      <trkpt lat="48.63767" lon="-2.41955">
        <ele>42.8</ele>
        <time>2015-10-12T13:56:32Z</time>
      </trkpt>
      <trkpt lat="48.63753" lon="-2.41907">
        <ele>38.5</ele>
        <time>2015-10-12T13:56:37Z</time>
      </trkpt>
      <trkpt lat="48.63743" lon="-2.41862">
        <ele>30.6</ele>
        <time>2015-10-12T13:56:48Z</time>
      </trkpt>
      <trkpt lat="48.63731" lon="-2.4183">
        <ele>26.6</ele>
        <time>2015-10-12T13:56:58Z</time>
      </trkpt>
      <trkpt lat="48.63708" lon="-2.41784">
        <ele>24.3</ele>
        <time>2015-10-12T13:57:04Z</time>
      </trkpt>
      <trkpt lat="48.63678" lon="-2.41732">
        <ele>21.8</ele>
        <time>2015-10-12T13:57:10Z</time>
      </trkpt>
      <trkpt lat="48.63658" lon="-2.417">
        <ele>20.1</ele>
        <time>2015-10-12T13:57:14Z</time>
      </trkpt>
      <trkpt lat="48.63628" lon="-2.41705">
        <ele>16.3</ele>
        <time>2015-10-12T13:57:23Z</time>
      </trkpt>
      <trkpt lat="48.636" lon="-2.41733">
        <ele>14.2</ele>
        <time>2015-10-12T13:57:29Z</time>
      </trkpt>
      <trkpt lat="48.63577" lon="-2.41769">
        <ele>12.6</ele>
        <time>2015-10-12T13:57:35Z</time>
      </trkpt>
      <trkpt lat="48.63563" lon="-2.41793">
        <ele>11.8</ele>
        <time>2015-10-12T13:57:39Z</time>
      </trkpt>
      <trkpt lat="48.6354" lon="-2.4183">
        <ele>10.8</ele>
        <time>2015-10-12T13:57:45Z</time>
      </trkpt>
      <trkpt lat="48.63516" lon="-2.41864">
        <ele>10.1</ele>
        <time>2015-10-12T13:57:51Z</time>
      </trkpt>
      <trkpt lat="48.63497" lon="-2.41882">
        <ele>9.8</ele>
        <time>2015-10-12T13:57:55Z</time>
      </trkpt>
      <trkpt lat="48.63471" lon="-2.4191">
        <ele>9.5</ele>
        <time>2015-10-12T13:58:01Z</time>
      </trkpt>
      <trkpt lat="48.63446" lon="-2.41944">
        <ele>9.2</ele>
        <time>2015-10-12T13:58:07Z</time>
      </trkpt>
      <trkpt lat="48.63431" lon="-2.41987">
        <ele>8.8</ele>
        <time>2015-10-12T13:58:13Z</time>
      </trkpt>
      <trkpt lat="48.63422" lon="-2.42017">
        <ele>8.7</ele>
        <time>2015-10-12T13:58:18Z</time>
      </trkpt>
      <trkpt lat="48.63397" lon="-2.42051">
        <ele>8.7</ele>
        <time>2015-10-12T13:58:27Z</time>
      </trkpt>
      <trkpt lat="48.63367" lon="-2.42071">
        <ele>9.6</ele>
        <time>2015-10-12T13:58:37Z</time>
      </trkpt>
      <trkpt lat="48.63335" lon="-2.42092">
        <ele>10.9</ele>
        <time>2015-10-12T13:58:47Z</time>
      </trkpt>
      <trkpt lat="48.63317" lon="-2.4211">
        <ele>12.3</ele>
        <time>2015-10-12T13:58:56Z</time>
      </trkpt>
      <trkpt lat="48.6329" lon="-2.42133">
        <ele>16</ele>
        <time>2015-10-12T13:59:15Z</time>
      </trkpt>
      <trkpt lat="48.63274" lon="-2.42168">
        <ele>20.7</ele>
        <time>2015-10-12T13:59:32Z</time>
      </trkpt>
      <trkpt lat="48.63267" lon="-2.42194">
        <ele>24.4</ele>
        <time>2015-10-12T13:59:45Z</time>
      </trkpt>
      <trkpt lat="48.63261" lon="-2.42236">
        <ele>30.7</ele>
        <time>2015-10-12T14:00:23Z</time>
      </trkpt>
      <trkpt lat="48.63247" lon="-2.42273">
        <ele>35.9</ele>
        <time>2015-10-12T14:00:51Z</time>
      </trkpt>
      <trkpt lat="48.63224" lon="-2.42306">
        <ele>38.2</ele>
        <time>2015-10-12T14:01:06Z</time>
      </trkpt>
      <trkpt lat="48.63213" lon="-2.4233">
        <ele>39.9</ele>
        <time>2015-10-12T14:01:15Z</time>
      </trkpt>
      <trkpt lat="48.632" lon="-2.42372">
        <ele>41.2</ele>
        <time>2015-10-12T14:01:25Z</time>
      </trkpt>
      <trkpt lat="48.63181" lon="-2.42407">
        <ele>42</ele>
        <time>2015-10-12T14:01:34Z</time>
      </trkpt>
      <trkpt lat="48.63169" lon="-2.42431">
        <ele>42.5</ele>
        <time>2015-10-12T14:01:40Z</time>
      </trkpt>
      <trkpt lat="48.6315" lon="-2.42467">
        <ele>43.4</ele>
        <time>2015-10-12T14:01:49Z</time>
      </trkpt>
      <trkpt lat="48.63131" lon="-2.42507">
        <ele>44.6</ele>
        <time>2015-10-12T14:02:00Z</time>
      </trkpt>
      <trkpt lat="48.63114" lon="-2.42541">
        <ele>45.8</ele>
        <time>2015-10-12T14:02:09Z</time>
      </trkpt>
      <trkpt lat="48.63102" lon="-2.42567">
        <ele>46.5</ele>
        <time>2015-10-12T14:02:15Z</time>
      </trkpt>
      <trkpt lat="48.63081" lon="-2.4261">
        <ele>47.6</ele>
        <time>2015-10-12T14:02:24Z</time>
      </trkpt>
      <trkpt lat="48.63058" lon="-2.42655">
        <ele>48.4</ele>
        <time>2015-10-12T14:02:33Z</time>
      </trkpt>
      <trkpt lat="48.63036" lon="-2.427">
        <ele>49.7</ele>
        <time>2015-10-12T14:02:42Z</time>
      </trkpt>
      <trkpt lat="48.63022" lon="-2.4273">
        <ele>50.4</ele>
        <time>2015-10-12T14:02:48Z</time>
      </trkpt>
      <trkpt lat="48.62999" lon="-2.42774">
        <ele>51.8</ele>
        <time>2015-10-12T14:02:57Z</time>
      </trkpt>
      <trkpt lat="48.62974" lon="-2.42813">
        <ele>53.1</ele>
        <time>2015-10-12T14:03:06Z</time>
      </trkpt>
      <trkpt lat="48.62953" lon="-2.42806">
        <ele>53.8</ele>
        <time>2015-10-12T14:03:12Z</time>
      </trkpt>
      <trkpt lat="48.62915" lon="-2.42821">
        <ele>54.7</ele>
        <time>2015-10-12T14:03:21Z</time>
      </trkpt>
      <trkpt lat="48.62882" lon="-2.42837">
        <ele>55.7</ele>
        <time>2015-10-12T14:03:29Z</time>
      </trkpt>
      <trkpt lat="48.62851" lon="-2.42852">
        <ele>56.4</ele>
        <time>2015-10-12T14:03:36Z</time>
      </trkpt>
      <trkpt lat="48.62833" lon="-2.4286">
        <ele>57</ele>
        <time>2015-10-12T14:03:40Z</time>
      </trkpt>
      <trkpt lat="48.62803" lon="-2.42876">
        <ele>57.8</ele>
        <time>2015-10-12T14:03:47Z</time>
      </trkpt>
      <trkpt lat="48.62768" lon="-2.429">
        <ele>59</ele>
        <time>2015-10-12T14:03:56Z</time>
      </trkpt>
      <trkpt lat="48.62744" lon="-2.42917">
        <ele>59.7</ele>
        <time>2015-10-12T14:04:02Z</time>
      </trkpt>
      <trkpt lat="48.62708" lon="-2.42936">
        <ele>60.5</ele>
        <time>2015-10-12T14:04:11Z</time>
      </trkpt>
      <trkpt lat="48.62677" lon="-2.42959">
        <ele>61.2</ele>
        <time>2015-10-12T14:04:19Z</time>
      </trkpt>
      <trkpt lat="48.62653" lon="-2.42983">
        <ele>61.6</ele>
        <time>2015-10-12T14:04:25Z</time>
      </trkpt>
      <trkpt lat="48.62633" lon="-2.42992">
        <ele>61.8</ele>
        <time>2015-10-12T14:04:29Z</time>
      </trkpt>
      <trkpt lat="48.62598" lon="-2.42996">
        <ele>62</ele>
        <time>2015-10-12T14:04:35Z</time>
      </trkpt>
      <trkpt lat="48.62555" lon="-2.42995">
        <ele>61.6</ele>
        <time>2015-10-12T14:04:41Z</time>
      </trkpt>
      <trkpt lat="48.62509" lon="-2.4299">
        <ele>60.7</ele>
        <time>2015-10-12T14:04:47Z</time>
      </trkpt>
      <trkpt lat="48.62478" lon="-2.42986">
        <ele>59.9</ele>
        <time>2015-10-12T14:04:51Z</time>
      </trkpt>
      <trkpt lat="48.62431" lon="-2.42981">
        <ele>58.7</ele>
        <time>2015-10-12T14:04:57Z</time>
      </trkpt>
      <trkpt lat="48.62384" lon="-2.42982">
        <ele>57.2</ele>
        <time>2015-10-12T14:05:03Z</time>
      </trkpt>
      <trkpt lat="48.62355" lon="-2.42988">
        <ele>56.2</ele>
        <time>2015-10-12T14:05:07Z</time>
      </trkpt>
      <trkpt lat="48.62314" lon="-2.43002">
        <ele>54.9</ele>
        <time>2015-10-12T14:05:13Z</time>
      </trkpt>
      <trkpt lat="48.62274" lon="-2.43014">
        <ele>53.5</ele>
        <time>2015-10-12T14:05:19Z</time>
      </trkpt>
      <trkpt lat="48.62242" lon="-2.43013">
        <ele>51.5</ele>
        <time>2015-10-12T14:05:27Z</time>
      </trkpt>
      <trkpt lat="48.6222" lon="-2.43015">
        <ele>49.8</ele>
        <time>2015-10-12T14:05:34Z</time>
      </trkpt>
      <trkpt lat="48.62208" lon="-2.42979">
        <ele>47.7</ele>
        <time>2015-10-12T14:05:42Z</time>
      </trkpt>
      <trkpt lat="48.62211" lon="-2.42929">
        <ele>45.6</ele>
        <time>2015-10-12T14:05:48Z</time>
      </trkpt>
      <trkpt lat="48.62203" lon="-2.4288">
        <ele>42.2</ele>
        <time>2015-10-12T14:05:56Z</time>
      </trkpt>
      <trkpt lat="48.62206" lon="-2.42846">
        <ele>40.6</ele>
        <time>2015-10-12T14:06:00Z</time>
      </trkpt>
      <trkpt lat="48.62226" lon="-2.42809">
        <ele>38.7</ele>
        <time>2015-10-12T14:06:06Z</time>
      </trkpt>
      <trkpt lat="48.62245" lon="-2.42766">
        <ele>37.1</ele>
        <time>2015-10-12T14:06:14Z</time>
      </trkpt>
      <trkpt lat="48.62257" lon="-2.42741">
        <ele>36.5</ele>
        <time>2015-10-12T14:06:18Z</time>
      </trkpt>
      <trkpt lat="48.62275" lon="-2.42712">
        <ele>35</ele>
        <time>2015-10-12T14:06:30Z</time>
      </trkpt>
      <trkpt lat="48.62257" lon="-2.42674">
        <ele>34</ele>
        <time>2015-10-12T14:06:41Z</time>
      </trkpt>
      <trkpt lat="48.6225" lon="-2.42632">
        <ele>33.5</ele>
        <time>2015-10-12T14:06:51Z</time>
      </trkpt>
      <trkpt lat="48.62245" lon="-2.42628">
        <ele>33.7</ele>
        <time>2015-10-12T14:09:50Z</time>
      </trkpt>
      <trkpt lat="48.6222" lon="-2.42647">
        <ele>35.3</ele>
        <time>2015-10-12T14:10:04Z</time>
      </trkpt>
      <trkpt lat="48.62189" lon="-2.42645">
        <ele>37.3</ele>
        <time>2015-10-12T14:10:17Z</time>
      </trkpt>
      <trkpt lat="48.62166" lon="-2.42637">
        <ele>38.6</ele>
        <time>2015-10-12T14:10:25Z</time>
      </trkpt>
      <trkpt lat="48.62135" lon="-2.42628">
        <ele>40.7</ele>
        <time>2015-10-12T14:10:36Z</time>
      </trkpt>
      <trkpt lat="48.62106" lon="-2.42619">
        <ele>42.6</ele>
        <time>2015-10-12T14:10:46Z</time>
      </trkpt>
      <trkpt lat="48.62078" lon="-2.42601">
        <ele>44.5</ele>
        <time>2015-10-12T14:10:57Z</time>
      </trkpt>
      <trkpt lat="48.62059" lon="-2.42588">
        <ele>45.3</ele>
        <time>2015-10-12T14:11:03Z</time>
      </trkpt>
      <trkpt lat="48.62026" lon="-2.42574">
        <ele>46.7</ele>
        <time>2015-10-12T14:11:12Z</time>
      </trkpt>
      <trkpt lat="48.61989" lon="-2.42565">
        <ele>47.9</ele>
        <time>2015-10-12T14:11:21Z</time>
      </trkpt>
      <trkpt lat="48.61954" lon="-2.42552">
        <ele>48.7</ele>
        <time>2015-10-12T14:11:29Z</time>
      </trkpt>
      <trkpt lat="48.61935" lon="-2.42541">
        <ele>49</ele>
        <time>2015-10-12T14:11:33Z</time>
      </trkpt>
      <trkpt lat="48.6191" lon="-2.42506">
        <ele>48.9</ele>
        <time>2015-10-12T14:11:41Z</time>
      </trkpt>
      <trkpt lat="48.6191" lon="-2.42459">
        <ele>48.4</ele>
        <time>2015-10-12T14:11:47Z</time>
      </trkpt>
      <trkpt lat="48.61916" lon="-2.42427">
        <ele>47.9</ele>
        <time>2015-10-12T14:11:51Z</time>
      </trkpt>
      <trkpt lat="48.61905" lon="-2.4241">
        <ele>46.9</ele>
        <time>2015-10-12T14:12:00Z</time>
      </trkpt>
      <trkpt lat="48.61901" lon="-2.42462">
        <ele>46.5</ele>
        <time>2015-10-12T14:12:08Z</time>
      </trkpt>
      <trkpt lat="48.61898" lon="-2.42507">
        <ele>46.4</ele>
        <time>2015-10-12T14:12:14Z</time>
      </trkpt>
      <trkpt lat="48.61896" lon="-2.42536">
        <ele>46.5</ele>
        <time>2015-10-12T14:12:18Z</time>
      </trkpt>
      <trkpt lat="48.61893" lon="-2.42581">
        <ele>47</ele>
        <time>2015-10-12T14:12:24Z</time>
      </trkpt>
      <trkpt lat="48.61885" lon="-2.42625">
        <ele>47.4</ele>
        <time>2015-10-12T14:12:30Z</time>
      </trkpt>
      <trkpt lat="48.61877" lon="-2.42653">
        <ele>47.7</ele>
        <time>2015-10-12T14:12:34Z</time>
      </trkpt>
      <trkpt lat="48.61848" lon="-2.42669">
        <ele>47.8</ele>
        <time>2015-10-12T14:12:40Z</time>
      </trkpt>
      <trkpt lat="48.61818" lon="-2.42674">
        <ele>47.9</ele>
        <time>2015-10-12T14:12:46Z</time>
      </trkpt>
      <trkpt lat="48.61785" lon="-2.42679">
        <ele>47.9</ele>
        <time>2015-10-12T14:12:52Z</time>
      </trkpt>
      <trkpt lat="48.61762" lon="-2.42681">
        <ele>47.8</ele>
        <time>2015-10-12T14:12:56Z</time>
      </trkpt>
      <trkpt lat="48.61725" lon="-2.42673">
        <ele>47.3</ele>
        <time>2015-10-12T14:13:02Z</time>
      </trkpt>
      <trkpt lat="48.61694" lon="-2.42677">
        <ele>46.8</ele>
        <time>2015-10-12T14:13:08Z</time>
      </trkpt>
      <trkpt lat="48.61671" lon="-2.42718">
        <ele>46.2</ele>
        <time>2015-10-12T14:13:14Z</time>
      </trkpt>
      <trkpt lat="48.61657" lon="-2.42748">
        <ele>45.8</ele>
        <time>2015-10-12T14:13:18Z</time>
      </trkpt>
      <trkpt lat="48.61633" lon="-2.42792">
        <ele>45.3</ele>
        <time>2015-10-12T14:13:24Z</time>
      </trkpt>
      <trkpt lat="48.61599" lon="-2.42819">
        <ele>44.8</ele>
        <time>2015-10-12T14:13:30Z</time>
      </trkpt>
      <trkpt lat="48.61578" lon="-2.42835">
        <ele>44.5</ele>
        <time>2015-10-12T14:13:34Z</time>
      </trkpt>
      <trkpt lat="48.61545" lon="-2.42857">
        <ele>44.2</ele>
        <time>2015-10-12T14:13:40Z</time>
      </trkpt>
      <trkpt lat="48.6151" lon="-2.42846">
        <ele>44</ele>
        <time>2015-10-12T14:13:46Z</time>
      </trkpt>
      <trkpt lat="48.61477" lon="-2.42828">
        <ele>43.7</ele>
        <time>2015-10-12T14:13:52Z</time>
      </trkpt>
      <trkpt lat="48.61455" lon="-2.42817">
        <ele>43.6</ele>
        <time>2015-10-12T14:13:56Z</time>
      </trkpt>
      <trkpt lat="48.61425" lon="-2.428">
        <ele>43.6</ele>
        <time>2015-10-12T14:14:02Z</time>
      </trkpt>
      <trkpt lat="48.61394" lon="-2.42791">
        <ele>43.9</ele>
        <time>2015-10-12T14:14:08Z</time>
      </trkpt>
      <trkpt lat="48.61372" lon="-2.4279">
        <ele>44</ele>
        <time>2015-10-12T14:14:12Z</time>
      </trkpt>
      <trkpt lat="48.61338" lon="-2.42787">
        <ele>44.2</ele>
        <time>2015-10-12T14:14:18Z</time>
      </trkpt>
      <trkpt lat="48.61306" lon="-2.42786">
        <ele>44.4</ele>
        <time>2015-10-12T14:14:24Z</time>
      </trkpt>
      <trkpt lat="48.61286" lon="-2.42822">
        <ele>44.6</ele>
        <time>2015-10-12T14:14:30Z</time>
      </trkpt>
      <trkpt lat="48.61275" lon="-2.42847">
        <ele>44.8</ele>
        <time>2015-10-12T14:14:34Z</time>
      </trkpt>
      <trkpt lat="48.61265" lon="-2.42887">
        <ele>45.3</ele>
        <time>2015-10-12T14:14:40Z</time>
      </trkpt>
      <trkpt lat="48.61259" lon="-2.4293">
        <ele>45.9</ele>
        <time>2015-10-12T14:14:46Z</time>
      </trkpt>
      <trkpt lat="48.61254" lon="-2.42974">
        <ele>46.5</ele>
        <time>2015-10-12T14:14:52Z</time>
      </trkpt>
      <trkpt lat="48.61248" lon="-2.43002">
        <ele>46.9</ele>
        <time>2015-10-12T14:14:56Z</time>
      </trkpt>
      <trkpt lat="48.61258" lon="-2.43045">
        <ele>47.5</ele>
        <time>2015-10-12T14:15:03Z</time>
      </trkpt>
      <trkpt lat="48.61286" lon="-2.4306">
        <ele>47.8</ele>
        <time>2015-10-12T14:15:09Z</time>
      </trkpt>
      <trkpt lat="48.61305" lon="-2.43068">
        <ele>47.8</ele>
        <time>2015-10-12T14:15:13Z</time>
      </trkpt>
      <trkpt lat="48.61339" lon="-2.43084">
        <ele>47.8</ele>
        <time>2015-10-12T14:15:21Z</time>
      </trkpt>
      <trkpt lat="48.6136" lon="-2.43109">
        <ele>47.6</ele>
        <time>2015-10-12T14:15:27Z</time>
      </trkpt>
      <trkpt lat="48.61342" lon="-2.43139">
        <ele>47.4</ele>
        <time>2015-10-12T14:15:33Z</time>
      </trkpt>
      <trkpt lat="48.61326" lon="-2.43154">
        <ele>47.4</ele>
        <time>2015-10-12T14:15:37Z</time>
      </trkpt>
      <trkpt lat="48.61306" lon="-2.43184">
        <ele>47.4</ele>
        <time>2015-10-12T14:15:43Z</time>
      </trkpt>
      <trkpt lat="48.61289" lon="-2.4322">
        <ele>47.5</ele>
        <time>2015-10-12T14:15:49Z</time>
      </trkpt>
      <trkpt lat="48.61277" lon="-2.43243">
        <ele>47.6</ele>
        <time>2015-10-12T14:15:53Z</time>
      </trkpt>
      <trkpt lat="48.61248" lon="-2.4327">
        <ele>48</ele>
        <time>2015-10-12T14:16:02Z</time>
      </trkpt>
      <trkpt lat="48.61218" lon="-2.43251">
        <ele>48.6</ele>
        <time>2015-10-12T14:16:09Z</time>
      </trkpt>
      <trkpt lat="48.6119" lon="-2.43239">
        <ele>49.1</ele>
        <time>2015-10-12T14:16:15Z</time>
      </trkpt>
      <trkpt lat="48.61169" lon="-2.43248">
        <ele>49.3</ele>
        <time>2015-10-12T14:16:19Z</time>
      </trkpt>
      <trkpt lat="48.61141" lon="-2.43261">
        <ele>49.6</ele>
        <time>2015-10-12T14:16:25Z</time>
      </trkpt>
      <trkpt lat="48.61102" lon="-2.43271">
        <ele>50.3</ele>
        <time>2015-10-12T14:16:34Z</time>
      </trkpt>
      <trkpt lat="48.61075" lon="-2.4328">
        <ele>50.7</ele>
        <time>2015-10-12T14:16:40Z</time>
      </trkpt>
      <trkpt lat="48.6105" lon="-2.43289">
        <ele>51.2</ele>
        <time>2015-10-12T14:16:46Z</time>
      </trkpt>
      <trkpt lat="48.61012" lon="-2.43304">
        <ele>52.3</ele>
        <time>2015-10-12T14:16:55Z</time>
      </trkpt>
      <trkpt lat="48.60985" lon="-2.43314">
        <ele>53</ele>
        <time>2015-10-12T14:17:01Z</time>
      </trkpt>
      <trkpt lat="48.60967" lon="-2.43316">
        <ele>53.3</ele>
        <time>2015-10-12T14:17:05Z</time>
      </trkpt>
      <trkpt lat="48.60936" lon="-2.43323">
        <ele>55.2</ele>
        <time>2015-10-12T14:21:11Z</time>
      </trkpt>
      <trkpt lat="48.60908" lon="-2.43327">
        <ele>55.2</ele>
        <time>2015-10-12T14:21:17Z</time>
      </trkpt>
      <trkpt lat="48.60879" lon="-2.43331">
        <ele>55.1</ele>
        <time>2015-10-12T14:21:23Z</time>
      </trkpt>
      <trkpt lat="48.6086" lon="-2.43334">
        <ele>55.1</ele>
        <time>2015-10-12T14:21:27Z</time>
      </trkpt>
      <trkpt lat="48.60825" lon="-2.43336">
        <ele>55.1</ele>
        <time>2015-10-12T14:21:36Z</time>
      </trkpt>
      <trkpt lat="48.60795" lon="-2.43333">
        <ele>55.1</ele>
        <time>2015-10-12T14:21:42Z</time>
      </trkpt>
      <trkpt lat="48.60775" lon="-2.43332">
        <ele>55.1</ele>
        <time>2015-10-12T14:21:46Z</time>
      </trkpt>
      <trkpt lat="48.60744" lon="-2.43341">
        <ele>55.4</ele>
        <time>2015-10-12T14:21:53Z</time>
      </trkpt>
      <trkpt lat="48.60713" lon="-2.43361">
        <ele>56</ele>
        <time>2015-10-12T14:22:02Z</time>
      </trkpt>
      <trkpt lat="48.60741" lon="-2.43343">
        <ele>57.5</ele>
        <time>2015-10-12T14:22:48Z</time>
      </trkpt>
      <trkpt lat="48.60762" lon="-2.43334">
        <ele>57.4</ele>
        <time>2015-10-12T14:22:52Z</time>
      </trkpt>
      <trkpt lat="48.60797" lon="-2.43333">
        <ele>57.2</ele>
        <time>2015-10-12T14:22:58Z</time>
      </trkpt>
      <trkpt lat="48.60831" lon="-2.43334">
        <ele>56.8</ele>
        <time>2015-10-12T14:23:04Z</time>
      </trkpt>
      <trkpt lat="48.60863" lon="-2.43331">
        <ele>56.4</ele>
        <time>2015-10-12T14:23:10Z</time>
      </trkpt>
      <trkpt lat="48.60885" lon="-2.43328">
        <ele>56.1</ele>
        <time>2015-10-12T14:23:14Z</time>
      </trkpt>
      <trkpt lat="48.60915" lon="-2.43322">
        <ele>55.9</ele>
        <time>2015-10-12T14:23:20Z</time>
      </trkpt>
      <trkpt lat="48.60944" lon="-2.43317">
        <ele>55.7</ele>
        <time>2015-10-12T14:23:26Z</time>
      </trkpt>
      <trkpt lat="48.60965" lon="-2.43317">
        <ele>55.6</ele>
        <time>2015-10-12T14:23:30Z</time>
      </trkpt>
      <trkpt lat="48.60997" lon="-2.43318">
        <ele>55.3</ele>
        <time>2015-10-12T14:23:37Z</time>
      </trkpt>
      <trkpt lat="48.61026" lon="-2.43343">
        <ele>55</ele>
        <time>2015-10-12T14:23:43Z</time>
      </trkpt>
      <trkpt lat="48.61051" lon="-2.43378">
        <ele>54.7</ele>
        <time>2015-10-12T14:23:49Z</time>
      </trkpt>
      <trkpt lat="48.61067" lon="-2.43398">
        <ele>54.6</ele>
        <time>2015-10-12T14:23:53Z</time>
      </trkpt>
      <trkpt lat="48.61094" lon="-2.43408">
        <ele>54.5</ele>
        <time>2015-10-12T14:23:59Z</time>
      </trkpt>
      <trkpt lat="48.61123" lon="-2.43404">
        <ele>54.4</ele>
        <time>2015-10-12T14:24:05Z</time>
      </trkpt>
      <trkpt lat="48.61142" lon="-2.43408">
        <ele>54.3</ele>
        <time>2015-10-12T14:24:09Z</time>
      </trkpt>
      <trkpt lat="48.61151" lon="-2.43453">
        <ele>54.4</ele>
        <time>2015-10-12T14:24:15Z</time>
      </trkpt>
      <trkpt lat="48.61153" lon="-2.43506">
        <ele>54.4</ele>
        <time>2015-10-12T14:24:21Z</time>
      </trkpt>
      <trkpt lat="48.61152" lon="-2.43563">
        <ele>54</ele>
        <time>2015-10-12T14:24:27Z</time>
      </trkpt>
      <trkpt lat="48.61152" lon="-2.43601">
        <ele>53.6</ele>
        <time>2015-10-12T14:24:31Z</time>
      </trkpt>
      <trkpt lat="48.61151" lon="-2.43661">
        <ele>52.6</ele>
        <time>2015-10-12T14:24:37Z</time>
      </trkpt>
      <trkpt lat="48.61152" lon="-2.43723">
        <ele>51.3</ele>
        <time>2015-10-12T14:24:43Z</time>
      </trkpt>
      <trkpt lat="48.61164" lon="-2.43777">
        <ele>49.9</ele>
        <time>2015-10-12T14:24:49Z</time>
      </trkpt>
      <trkpt lat="48.6118" lon="-2.43809">
        <ele>48.9</ele>
        <time>2015-10-12T14:24:53Z</time>
      </trkpt>
      <trkpt lat="48.61173" lon="-2.43862">
        <ele>47.7</ele>
        <time>2015-10-12T14:24:59Z</time>
      </trkpt>
      <trkpt lat="48.61159" lon="-2.43905">
        <ele>46</ele>
        <time>2015-10-12T14:25:05Z</time>
      </trkpt>
      <trkpt lat="48.61153" lon="-2.43939">
        <ele>46.4</ele>
        <time>2015-10-12T14:25:10Z</time>
      </trkpt>
      <trkpt lat="48.61145" lon="-2.4398">
        <ele>46.4</ele>
        <time>2015-10-12T14:25:16Z</time>
      </trkpt>
      <trkpt lat="48.61137" lon="-2.4402">
        <ele>46.7</ele>
        <time>2015-10-12T14:25:22Z</time>
      </trkpt>
      <trkpt lat="48.61119" lon="-2.44059">
        <ele>47.3</ele>
        <time>2015-10-12T14:25:29Z</time>
      </trkpt>
      <trkpt lat="48.61104" lon="-2.44073">
        <ele>47.6</ele>
        <time>2015-10-12T14:25:33Z</time>
      </trkpt>
      <trkpt lat="48.61073" lon="-2.44061">
        <ele>48.2</ele>
        <time>2015-10-12T14:25:40Z</time>
      </trkpt>
      <trkpt lat="48.61044" lon="-2.44047">
        <ele>48.5</ele>
        <time>2015-10-12T14:25:46Z</time>
      </trkpt>
      <trkpt lat="48.61024" lon="-2.4406">
        <ele>48.6</ele>
        <time>2015-10-12T14:25:50Z</time>
      </trkpt>
      <trkpt lat="48.60995" lon="-2.4408">
        <ele>48.8</ele>
        <time>2015-10-12T14:25:56Z</time>
      </trkpt>
      <trkpt lat="48.60967" lon="-2.441">
        <ele>48</ele>
        <time>2015-10-12T14:26:02Z</time>
      </trkpt>
      <trkpt lat="48.60938" lon="-2.44127">
        <ele>49</ele>
        <time>2015-10-12T14:26:09Z</time>
      </trkpt>
      <trkpt lat="48.60931" lon="-2.44156">
        <ele>49.2</ele>
        <time>2015-10-12T14:26:13Z</time>
      </trkpt>
      <trkpt lat="48.60931" lon="-2.44211">
        <ele>50.3</ele>
        <time>2015-10-12T14:26:21Z</time>
      </trkpt>
      <trkpt lat="48.60931" lon="-2.44253">
        <ele>51.2</ele>
        <time>2015-10-12T14:26:27Z</time>
      </trkpt>
      <trkpt lat="48.60933" lon="-2.44306">
        <ele>52.9</ele>
        <time>2015-10-12T14:26:35Z</time>
      </trkpt>
      <trkpt lat="48.60919" lon="-2.4433">
        <ele>53.7</ele>
        <time>2015-10-12T14:26:40Z</time>
      </trkpt>
      <trkpt lat="48.60888" lon="-2.44346">
        <ele>54.4</ele>
        <time>2015-10-12T14:26:46Z</time>
      </trkpt>
      <trkpt lat="48.60854" lon="-2.44358">
        <ele>54.6</ele>
        <time>2015-10-12T14:26:52Z</time>
      </trkpt>
      <trkpt lat="48.60832" lon="-2.44367">
        <ele>54.6</ele>
        <time>2015-10-12T14:26:56Z</time>
      </trkpt>
      <trkpt lat="48.60824" lon="-2.44408">
        <ele>54.6</ele>
        <time>2015-10-12T14:27:02Z</time>
      </trkpt>
      <trkpt lat="48.60829" lon="-2.44454">
        <ele>54.9</ele>
        <time>2015-10-12T14:27:08Z</time>
      </trkpt>
      <trkpt lat="48.60824" lon="-2.44498">
        <ele>55.2</ele>
        <time>2015-10-12T14:27:14Z</time>
      </trkpt>
      <trkpt lat="48.60817" lon="-2.44526">
        <ele>55.4</ele>
        <time>2015-10-12T14:27:18Z</time>
      </trkpt>
      <trkpt lat="48.608" lon="-2.44562">
        <ele>55.6</ele>
        <time>2015-10-12T14:27:24Z</time>
      </trkpt>
      <trkpt lat="48.60773" lon="-2.44586">
        <ele>56</ele>
        <time>2015-10-12T14:27:30Z</time>
      </trkpt>
      <trkpt lat="48.60752" lon="-2.44599">
        <ele>56.2</ele>
        <time>2015-10-12T14:27:34Z</time>
      </trkpt>
      <trkpt lat="48.60724" lon="-2.44612">
        <ele>56.2</ele>
        <time>2015-10-12T14:27:40Z</time>
      </trkpt>
      <trkpt lat="48.60693" lon="-2.4462">
        <ele>56.2</ele>
        <time>2015-10-12T14:27:46Z</time>
      </trkpt>
      <trkpt lat="48.6065" lon="-2.44637">
        <ele>56</ele>
        <time>2015-10-12T14:27:54Z</time>
      </trkpt>
      <trkpt lat="48.60629" lon="-2.44644">
        <ele>55.8</ele>
        <time>2015-10-12T14:27:58Z</time>
      </trkpt>
      <trkpt lat="48.60597" lon="-2.4465">
        <ele>55.6</ele>
        <time>2015-10-12T14:28:04Z</time>
      </trkpt>
      <trkpt lat="48.60564" lon="-2.44657">
        <ele>55.4</ele>
        <time>2015-10-12T14:28:10Z</time>
      </trkpt>
      <trkpt lat="48.60533" lon="-2.44659">
        <ele>55.3</ele>
        <time>2015-10-12T14:28:16Z</time>
      </trkpt>
      <trkpt lat="48.60512" lon="-2.44658">
        <ele>55.2</ele>
        <time>2015-10-12T14:28:20Z</time>
      </trkpt>
      <trkpt lat="48.60478" lon="-2.44665">
        <ele>55.1</ele>
        <time>2015-10-12T14:28:26Z</time>
      </trkpt>
      <trkpt lat="48.60447" lon="-2.44671">
        <ele>55.1</ele>
        <time>2015-10-12T14:28:32Z</time>
      </trkpt>
      <trkpt lat="48.60426" lon="-2.44672">
        <ele>55.3</ele>
        <time>2015-10-12T14:28:36Z</time>
      </trkpt>
      <trkpt lat="48.60395" lon="-2.44675">
        <ele>55.9</ele>
        <time>2015-10-12T14:28:42Z</time>
      </trkpt>
      <trkpt lat="48.60362" lon="-2.44681">
        <ele>56.4</ele>
        <time>2015-10-12T14:28:48Z</time>
      </trkpt>
      <trkpt lat="48.60327" lon="-2.44687">
        <ele>57</ele>
        <time>2015-10-12T14:28:54Z</time>
      </trkpt>
      <trkpt lat="48.60305" lon="-2.44688">
        <ele>57.4</ele>
        <time>2015-10-12T14:28:58Z</time>
      </trkpt>
      <trkpt lat="48.60277" lon="-2.44703">
        <ele>58</ele>
        <time>2015-10-12T14:29:05Z</time>
      </trkpt>
      <trkpt lat="48.60262" lon="-2.44757">
        <ele>59.1</ele>
        <time>2015-10-12T14:29:14Z</time>
      </trkpt>
      <trkpt lat="48.60252" lon="-2.44793">
        <ele>60</ele>
        <time>2015-10-12T14:29:20Z</time>
      </trkpt>
      <trkpt lat="48.60238" lon="-2.44841">
        <ele>61</ele>
        <time>2015-10-12T14:29:28Z</time>
      </trkpt>
      <trkpt lat="48.6022" lon="-2.4489">
        <ele>62.3</ele>
        <time>2015-10-12T14:29:37Z</time>
      </trkpt>
      <trkpt lat="48.60206" lon="-2.44942">
        <ele>63.7</ele>
        <time>2015-10-12T14:29:46Z</time>
      </trkpt>
      <trkpt lat="48.60199" lon="-2.44979">
        <ele>64.6</ele>
        <time>2015-10-12T14:29:52Z</time>
      </trkpt>
      <trkpt lat="48.6019" lon="-2.45032">
        <ele>65.9</ele>
        <time>2015-10-12T14:30:01Z</time>
      </trkpt>
      <trkpt lat="48.60168" lon="-2.45078">
        <ele>66.9</ele>
        <time>2015-10-12T14:30:10Z</time>
      </trkpt>
      <trkpt lat="48.60137" lon="-2.4511">
        <ele>67.6</ele>
        <time>2015-10-12T14:30:19Z</time>
      </trkpt>
      <trkpt lat="48.60119" lon="-2.45136">
        <ele>68.1</ele>
        <time>2015-10-12T14:30:25Z</time>
      </trkpt>
      <trkpt lat="48.6009" lon="-2.45173">
        <ele>69.2</ele>
        <time>2015-10-12T14:30:34Z</time>
      </trkpt>
      <trkpt lat="48.60063" lon="-2.45216">
        <ele>70.5</ele>
        <time>2015-10-12T14:30:43Z</time>
      </trkpt>
      <trkpt lat="48.60046" lon="-2.45244">
        <ele>71.3</ele>
        <time>2015-10-12T14:30:49Z</time>
      </trkpt>
      <trkpt lat="48.60023" lon="-2.45286">
        <ele>72.2</ele>
        <time>2015-10-12T14:30:58Z</time>
      </trkpt>
      <trkpt lat="48.60002" lon="-2.4532">
        <ele>73.4</ele>
        <time>2015-10-12T14:31:09Z</time>
      </trkpt>
      <trkpt lat="48.59982" lon="-2.45352">
        <ele>75.3</ele>
        <time>2015-10-12T14:31:32Z</time>
      </trkpt>
      <trkpt lat="48.59966" lon="-2.4537">
        <ele>75.8</ele>
        <time>2015-10-12T14:31:42Z</time>
      </trkpt>
      <trkpt lat="48.59937" lon="-2.45399">
        <ele>76.5</ele>
        <time>2015-10-12T14:31:51Z</time>
      </trkpt>
      <trkpt lat="48.59905" lon="-2.45434">
        <ele>77</ele>
        <time>2015-10-12T14:32:00Z</time>
      </trkpt>
      <trkpt lat="48.59889" lon="-2.45459">
        <ele>77.1</ele>
        <time>2015-10-12T14:32:05Z</time>
      </trkpt>
      <trkpt lat="48.59868" lon="-2.45492">
        <ele>77.3</ele>
        <time>2015-10-12T14:32:11Z</time>
      </trkpt>
      <trkpt lat="48.59847" lon="-2.45525">
        <ele>77.4</ele>
        <time>2015-10-12T14:32:17Z</time>
      </trkpt>
      <trkpt lat="48.59825" lon="-2.45557">
        <ele>77.4</ele>
        <time>2015-10-12T14:32:23Z</time>
      </trkpt>
      <trkpt lat="48.5981" lon="-2.45577">
        <ele>77.4</ele>
        <time>2015-10-12T14:32:27Z</time>
      </trkpt>
      <trkpt lat="48.59786" lon="-2.45609">
        <ele>77.3</ele>
        <time>2015-10-12T14:32:33Z</time>
      </trkpt>
      <trkpt lat="48.59767" lon="-2.45643">
        <ele>77.3</ele>
        <time>2015-10-12T14:32:39Z</time>
      </trkpt>
      <trkpt lat="48.5976" lon="-2.45685">
        <ele>77.4</ele>
        <time>2015-10-12T14:32:45Z</time>
      </trkpt>
      <trkpt lat="48.59764" lon="-2.45714">
        <ele>77.3</ele>
        <time>2015-10-12T14:32:49Z</time>
      </trkpt>
      <trkpt lat="48.59747" lon="-2.4576">
        <ele>77</ele>
        <time>2015-10-12T14:32:55Z</time>
      </trkpt>
      <trkpt lat="48.59715" lon="-2.45803">
        <ele>76</ele>
        <time>2015-10-12T14:33:01Z</time>
      </trkpt>
      <trkpt lat="48.59694" lon="-2.45829">
        <ele>75.5</ele>
        <time>2015-10-12T14:33:05Z</time>
      </trkpt>
      <trkpt lat="48.59664" lon="-2.45865">
        <ele>74.6</ele>
        <time>2015-10-12T14:33:11Z</time>
      </trkpt>
      <trkpt lat="48.59641" lon="-2.45904">
        <ele>74</ele>
        <time>2015-10-12T14:33:17Z</time>
      </trkpt>
      <trkpt lat="48.59619" lon="-2.45943">
        <ele>73.6</ele>
        <time>2015-10-12T14:33:23Z</time>
      </trkpt>
      <trkpt lat="48.59606" lon="-2.45972">
        <ele>73.4</ele>
        <time>2015-10-12T14:33:27Z</time>
      </trkpt>
      <trkpt lat="48.59591" lon="-2.46016">
        <ele>73.3</ele>
        <time>2015-10-12T14:33:33Z</time>
      </trkpt>
      <trkpt lat="48.59573" lon="-2.46052">
        <ele>73.2</ele>
        <time>2015-10-12T14:33:39Z</time>
      </trkpt>
      <trkpt lat="48.59554" lon="-2.46073">
        <ele>73.2</ele>
        <time>2015-10-12T14:33:43Z</time>
      </trkpt>
      <trkpt lat="48.59532" lon="-2.46107">
        <ele>73.3</ele>
        <time>2015-10-12T14:33:49Z</time>
      </trkpt>
      <trkpt lat="48.59506" lon="-2.46135">
        <ele>73.7</ele>
        <time>2015-10-12T14:33:57Z</time>
      </trkpt>
      <trkpt lat="48.59471" lon="-2.46129">
        <ele>73.9</ele>
        <time>2015-10-12T14:34:03Z</time>
      </trkpt>
      <trkpt lat="48.59448" lon="-2.46119">
        <ele>74</ele>
        <time>2015-10-12T14:34:07Z</time>
      </trkpt>
      <trkpt lat="48.59412" lon="-2.46098">
        <ele>73.9</ele>
        <time>2015-10-12T14:34:13Z</time>
      </trkpt>
      <trkpt lat="48.59377" lon="-2.46077">
        <ele>73.4</ele>
        <time>2015-10-12T14:34:19Z</time>
      </trkpt>
      <trkpt lat="48.59342" lon="-2.46055">
        <ele>72.7</ele>
        <time>2015-10-12T14:34:25Z</time>
      </trkpt>
      <trkpt lat="48.59315" lon="-2.4604">
        <ele>72.1</ele>
        <time>2015-10-12T14:34:29Z</time>
      </trkpt>
      <trkpt lat="48.59269" lon="-2.46034">
        <ele>70.7</ele>
        <time>2015-10-12T14:34:35Z</time>
      </trkpt>
      <trkpt lat="48.59227" lon="-2.46062">
        <ele>68.8</ele>
        <time>2015-10-12T14:34:41Z</time>
      </trkpt>
      <trkpt lat="48.59204" lon="-2.46092">
        <ele>67.5</ele>
        <time>2015-10-12T14:34:45Z</time>
      </trkpt>
      <trkpt lat="48.59164" lon="-2.46109">
        <ele>65.6</ele>
        <time>2015-10-12T14:34:51Z</time>
      </trkpt>
      <trkpt lat="48.59128" lon="-2.46098">
        <ele>64.1</ele>
        <time>2015-10-12T14:34:57Z</time>
      </trkpt>
      <trkpt lat="48.59093" lon="-2.46088">
        <ele>63</ele>
        <time>2015-10-12T14:35:03Z</time>
      </trkpt>
      <trkpt lat="48.59069" lon="-2.46089">
        <ele>62.5</ele>
        <time>2015-10-12T14:35:07Z</time>
      </trkpt>
      <trkpt lat="48.59035" lon="-2.46091">
        <ele>61.9</ele>
        <time>2015-10-12T14:35:13Z</time>
      </trkpt>
      <trkpt lat="48.59007" lon="-2.46116">
        <ele>61.5</ele>
        <time>2015-10-12T14:35:19Z</time>
      </trkpt>
      <trkpt lat="48.5899" lon="-2.46136">
        <ele>61.4</ele>
        <time>2015-10-12T14:35:23Z</time>
      </trkpt>
      <trkpt lat="48.58959" lon="-2.46147">
        <ele>61.3</ele>
        <time>2015-10-12T14:35:29Z</time>
      </trkpt>
      <trkpt lat="48.5893" lon="-2.46143">
        <ele>61.4</ele>
        <time>2015-10-12T14:35:35Z</time>
      </trkpt>
      <trkpt lat="48.58904" lon="-2.4612">
        <ele>62</ele>
        <time>2015-10-12T14:35:42Z</time>
      </trkpt>
      <trkpt lat="48.58905" lon="-2.46084">
        <ele>63.1</ele>
        <time>2015-10-12T14:35:48Z</time>
      </trkpt>
      <trkpt lat="48.58909" lon="-2.46035">
        <ele>64.2</ele>
        <time>2015-10-12T14:35:55Z</time>
      </trkpt>
      <trkpt lat="48.58912" lon="-2.45992">
        <ele>65</ele>
        <time>2015-10-12T14:36:01Z</time>
      </trkpt>
      <trkpt lat="48.58892" lon="-2.45956">
        <ele>66</ele>
        <time>2015-10-12T14:36:08Z</time>
      </trkpt>
      <trkpt lat="48.5887" lon="-2.45945">
        <ele>66.8</ele>
        <time>2015-10-12T14:36:13Z</time>
      </trkpt>
      <trkpt lat="48.58833" lon="-2.45934">
        <ele>68.2</ele>
        <time>2015-10-12T14:36:22Z</time>
      </trkpt>
      <trkpt lat="48.58796" lon="-2.45923">
        <ele>69.5</ele>
        <time>2015-10-12T14:36:31Z</time>
      </trkpt>
      <trkpt lat="48.58771" lon="-2.45917">
        <ele>70.3</ele>
        <time>2015-10-12T14:36:37Z</time>
      </trkpt>
      <trkpt lat="48.58733" lon="-2.45909">
        <ele>71.7</ele>
        <time>2015-10-12T14:36:46Z</time>
      </trkpt>
      <trkpt lat="48.58696" lon="-2.459">
        <ele>73</ele>
        <time>2015-10-12T14:36:55Z</time>
      </trkpt>
      <trkpt lat="48.5866" lon="-2.45886">
        <ele>74.4</ele>
        <time>2015-10-12T14:37:04Z</time>
      </trkpt>
      <trkpt lat="48.58635" lon="-2.45878">
        <ele>75.5</ele>
        <time>2015-10-12T14:37:10Z</time>
      </trkpt>
      <trkpt lat="48.586" lon="-2.45863">
        <ele>76.5</ele>
        <time>2015-10-12T14:37:18Z</time>
      </trkpt>
      <trkpt lat="48.58573" lon="-2.45851">
        <ele>77.1</ele>
        <time>2015-10-12T14:37:24Z</time>
      </trkpt>
      <trkpt lat="48.58554" lon="-2.45839">
        <ele>77.4</ele>
        <time>2015-10-12T14:37:28Z</time>
      </trkpt>
      <trkpt lat="48.58528" lon="-2.45813">
        <ele>77.8</ele>
        <time>2015-10-12T14:37:34Z</time>
      </trkpt>
      <trkpt lat="48.58505" lon="-2.4577">
        <ele>77.6</ele>
        <time>2015-10-12T14:37:40Z</time>
      </trkpt>
      <trkpt lat="48.58479" lon="-2.45732">
        <ele>77.2</ele>
        <time>2015-10-12T14:37:46Z</time>
      </trkpt>
      <trkpt lat="48.58461" lon="-2.45705">
        <ele>76.8</ele>
        <time>2015-10-12T14:37:50Z</time>
      </trkpt>
      <trkpt lat="48.58439" lon="-2.45663">
        <ele>76.3</ele>
        <time>2015-10-12T14:37:56Z</time>
      </trkpt>
      <trkpt lat="48.58416" lon="-2.45641">
        <ele>75.8</ele>
        <time>2015-10-12T14:38:03Z</time>
      </trkpt>
      <trkpt lat="48.58407" lon="-2.45684">
        <ele>75.5</ele>
        <time>2015-10-12T14:38:09Z</time>
      </trkpt>
      <trkpt lat="48.58402" lon="-2.45717">
        <ele>75.4</ele>
        <time>2015-10-12T14:38:14Z</time>
      </trkpt>
      <trkpt lat="48.58398" lon="-2.45759">
        <ele>75.5</ele>
        <time>2015-10-12T14:38:20Z</time>
      </trkpt>
      <trkpt lat="48.58395" lon="-2.45801">
        <ele>75.7</ele>
        <time>2015-10-12T14:38:26Z</time>
      </trkpt>
      <trkpt lat="48.58392" lon="-2.45842">
        <ele>76.2</ele>
        <time>2015-10-12T14:38:32Z</time>
      </trkpt>
      <trkpt lat="48.58388" lon="-2.45889">
        <ele>76.8</ele>
        <time>2015-10-12T14:38:39Z</time>
      </trkpt>
      <trkpt lat="48.58411" lon="-2.45909">
        <ele>77.2</ele>
        <time>2015-10-12T14:38:47Z</time>
      </trkpt>
      <trkpt lat="48.58443" lon="-2.45918">
        <ele>77.5</ele>
        <time>2015-10-12T14:38:55Z</time>
      </trkpt>
      <trkpt lat="48.58436" lon="-2.45949">
        <ele>77.8</ele>
        <time>2015-10-12T14:39:00Z</time>
      </trkpt>
      <trkpt lat="48.58422" lon="-2.45989">
        <ele>78.1</ele>
        <time>2015-10-12T14:39:06Z</time>
      </trkpt>
      <trkpt lat="48.58406" lon="-2.46029">
        <ele>78.5</ele>
        <time>2015-10-12T14:39:12Z</time>
      </trkpt>
      <trkpt lat="48.58387" lon="-2.46066">
        <ele>78.7</ele>
        <time>2015-10-12T14:39:18Z</time>
      </trkpt>
      <trkpt lat="48.58374" lon="-2.4609">
        <ele>78.8</ele>
        <time>2015-10-12T14:39:22Z</time>
      </trkpt>
      <trkpt lat="48.58355" lon="-2.46126">
        <ele>79</ele>
        <time>2015-10-12T14:39:28Z</time>
      </trkpt>
      <trkpt lat="48.58335" lon="-2.46161">
        <ele>79.1</ele>
        <time>2015-10-12T14:39:34Z</time>
      </trkpt>
      <trkpt lat="48.58317" lon="-2.46176">
        <ele>79.1</ele>
        <time>2015-10-12T14:39:38Z</time>
      </trkpt>
      <trkpt lat="48.58288" lon="-2.46184">
        <ele>79.1</ele>
        <time>2015-10-12T14:39:44Z</time>
      </trkpt>
      <trkpt lat="48.58259" lon="-2.46188">
        <ele>79.4</ele>
        <time>2015-10-12T14:39:50Z</time>
      </trkpt>
      <trkpt lat="48.58232" lon="-2.46203">
        <ele>79.8</ele>
        <time>2015-10-12T14:39:59Z</time>
      </trkpt>
      <trkpt lat="48.58226" lon="-2.46234">
        <ele>80</ele>
        <time>2015-10-12T14:40:04Z</time>
      </trkpt>
      <trkpt lat="48.58215" lon="-2.46277">
        <ele>80.2</ele>
        <time>2015-10-12T14:40:10Z</time>
      </trkpt>
      <trkpt lat="48.58206" lon="-2.46323">
        <ele>80.4</ele>
        <time>2015-10-12T14:40:16Z</time>
      </trkpt>
      <trkpt lat="48.58201" lon="-2.46355">
        <ele>80.4</ele>
        <time>2015-10-12T14:40:20Z</time>
      </trkpt>
      <trkpt lat="48.58191" lon="-2.46401">
        <ele>80.4</ele>
        <time>2015-10-12T14:40:26Z</time>
      </trkpt>
      <trkpt lat="48.58166" lon="-2.46428">
        <ele>80.4</ele>
        <time>2015-10-12T14:40:32Z</time>
      </trkpt>
      <trkpt lat="48.58138" lon="-2.46446">
        <ele>80.4</ele>
        <time>2015-10-12T14:40:38Z</time>
      </trkpt>
      <trkpt lat="48.58124" lon="-2.46468">
        <ele>80.6</ele>
        <time>2015-10-12T14:40:42Z</time>
      </trkpt>
      <trkpt lat="48.58105" lon="-2.46504">
        <ele>81</ele>
        <time>2015-10-12T14:40:48Z</time>
      </trkpt>
      <trkpt lat="48.58077" lon="-2.46523">
        <ele>81.5</ele>
        <time>2015-10-12T14:40:54Z</time>
      </trkpt>
      <trkpt lat="48.58046" lon="-2.46521">
        <ele>81.9</ele>
        <time>2015-10-12T14:41:00Z</time>
      </trkpt>
      <trkpt lat="48.58025" lon="-2.46517">
        <ele>82.2</ele>
        <time>2015-10-12T14:41:04Z</time>
      </trkpt>
      <trkpt lat="48.57992" lon="-2.46512">
        <ele>82.5</ele>
        <time>2015-10-12T14:41:10Z</time>
      </trkpt>
      <trkpt lat="48.57961" lon="-2.46503">
        <ele>82.8</ele>
        <time>2015-10-12T14:41:16Z</time>
      </trkpt>
      <trkpt lat="48.57942" lon="-2.46492">
        <ele>83</ele>
        <time>2015-10-12T14:41:20Z</time>
      </trkpt>
      <trkpt lat="48.57914" lon="-2.46468">
        <ele>83.4</ele>
        <time>2015-10-12T14:41:26Z</time>
      </trkpt>
      <trkpt lat="48.57888" lon="-2.46442">
        <ele>83.8</ele>
        <time>2015-10-12T14:41:32Z</time>
      </trkpt>
      <trkpt lat="48.57859" lon="-2.46452">
        <ele>84.2</ele>
        <time>2015-10-12T14:41:38Z</time>
      </trkpt>
      <trkpt lat="48.57847" lon="-2.46484">
        <ele>84.3</ele>
        <time>2015-10-12T14:41:42Z</time>
      </trkpt>
      <trkpt lat="48.57831" lon="-2.46537">
        <ele>84.3</ele>
        <time>2015-10-12T14:41:48Z</time>
      </trkpt>
      <trkpt lat="48.57816" lon="-2.46592">
        <ele>84.1</ele>
        <time>2015-10-12T14:41:54Z</time>
      </trkpt>
      <trkpt lat="48.57805" lon="-2.46625">
        <ele>83.8</ele>
        <time>2015-10-12T14:41:58Z</time>
      </trkpt>
      <trkpt lat="48.57785" lon="-2.46666">
        <ele>83.6</ele>
        <time>2015-10-12T14:42:04Z</time>
      </trkpt>
      <trkpt lat="48.57766" lon="-2.46705">
        <ele>83.6</ele>
        <time>2015-10-12T14:42:10Z</time>
      </trkpt>
      <trkpt lat="48.57749" lon="-2.46744">
        <ele>84</ele>
        <time>2015-10-12T14:42:16Z</time>
      </trkpt>
      <trkpt lat="48.57739" lon="-2.46773">
        <ele>84.4</ele>
        <time>2015-10-12T14:42:20Z</time>
      </trkpt>
      <trkpt lat="48.57728" lon="-2.46819">
        <ele>84.9</ele>
        <time>2015-10-12T14:42:26Z</time>
      </trkpt>
      <trkpt lat="48.57724" lon="-2.46867">
        <ele>85.2</ele>
        <time>2015-10-12T14:42:32Z</time>
      </trkpt>
      <trkpt lat="48.57725" lon="-2.46915">
        <ele>85.6</ele>
        <time>2015-10-12T14:42:38Z</time>
      </trkpt>
      <trkpt lat="48.57725" lon="-2.46948">
        <ele>86.1</ele>
        <time>2015-10-12T14:42:42Z</time>
      </trkpt>
      <trkpt lat="48.57724" lon="-2.46996">
        <ele>86.7</ele>
        <time>2015-10-12T14:42:48Z</time>
      </trkpt>
      <trkpt lat="48.57725" lon="-2.47044">
        <ele>87</ele>
        <time>2015-10-12T14:42:54Z</time>
      </trkpt>
      <trkpt lat="48.57727" lon="-2.47078">
        <ele>87.1</ele>
        <time>2015-10-12T14:42:58Z</time>
      </trkpt>
      <trkpt lat="48.57732" lon="-2.47132">
        <ele>87.2</ele>
        <time>2015-10-12T14:43:04Z</time>
      </trkpt>
      <trkpt lat="48.57749" lon="-2.47163">
        <ele>85.7</ele>
        <time>2015-10-12T14:46:03Z</time>
      </trkpt>
      <trkpt lat="48.57785" lon="-2.47171">
        <ele>85.6</ele>
        <time>2015-10-12T14:46:13Z</time>
      </trkpt>
      <trkpt lat="48.57804" lon="-2.47175">
        <ele>85.6</ele>
        <time>2015-10-12T14:46:17Z</time>
      </trkpt>
      <trkpt lat="48.57836" lon="-2.47178">
        <ele>85.5</ele>
        <time>2015-10-12T14:46:23Z</time>
      </trkpt>
      <trkpt lat="48.57871" lon="-2.47174">
        <ele>85.2</ele>
        <time>2015-10-12T14:46:29Z</time>
      </trkpt>
      <trkpt lat="48.57894" lon="-2.47169">
        <ele>84.8</ele>
        <time>2015-10-12T14:46:33Z</time>
      </trkpt>
      <trkpt lat="48.57929" lon="-2.47163">
        <ele>84.4</ele>
        <time>2015-10-12T14:46:39Z</time>
      </trkpt>
      <trkpt lat="48.57964" lon="-2.47157">
        <ele>84</ele>
        <time>2015-10-12T14:46:45Z</time>
      </trkpt>
      <trkpt lat="48.57999" lon="-2.47142">
        <ele>83.6</ele>
        <time>2015-10-12T14:46:51Z</time>
      </trkpt>
      <trkpt lat="48.58022" lon="-2.47127">
        <ele>83.3</ele>
        <time>2015-10-12T14:46:55Z</time>
      </trkpt>
      <trkpt lat="48.58055" lon="-2.47104">
        <ele>82.9</ele>
        <time>2015-10-12T14:47:01Z</time>
      </trkpt>
      <trkpt lat="48.58088" lon="-2.4708">
        <ele>82.6</ele>
        <time>2015-10-12T14:47:07Z</time>
      </trkpt>
      <trkpt lat="48.58118" lon="-2.47049">
        <ele>82.4</ele>
        <time>2015-10-12T14:47:13Z</time>
      </trkpt>
      <trkpt lat="48.58138" lon="-2.47029">
        <ele>82.3</ele>
        <time>2015-10-12T14:47:17Z</time>
      </trkpt>
      <trkpt lat="48.58173" lon="-2.47007">
        <ele>82.2</ele>
        <time>2015-10-12T14:47:23Z</time>
      </trkpt>
      <trkpt lat="48.58209" lon="-2.46999">
        <ele>81.8</ele>
        <time>2015-10-12T14:47:29Z</time>
      </trkpt>
      <trkpt lat="48.58234" lon="-2.46994">
        <ele>81.5</ele>
        <time>2015-10-12T14:47:33Z</time>
      </trkpt>
      <trkpt lat="48.58271" lon="-2.46985">
        <ele>81.1</ele>
        <time>2015-10-12T14:47:39Z</time>
      </trkpt>
      <trkpt lat="48.58308" lon="-2.46975">
        <ele>80.3</ele>
        <time>2015-10-12T14:47:45Z</time>
      </trkpt>
      <trkpt lat="48.58339" lon="-2.46964">
        <ele>79.6</ele>
        <time>2015-10-12T14:47:51Z</time>
      </trkpt>
      <trkpt lat="48.58357" lon="-2.46969">
        <ele>79.2</ele>
        <time>2015-10-12T14:47:55Z</time>
      </trkpt>
      <trkpt lat="48.58367" lon="-2.47019">
        <ele>78.6</ele>
        <time>2015-10-12T14:48:01Z</time>
      </trkpt>
      <trkpt lat="48.58376" lon="-2.47076">
        <ele>78.1</ele>
        <time>2015-10-12T14:48:07Z</time>
      </trkpt>
      <trkpt lat="48.58386" lon="-2.47113">
        <ele>77.7</ele>
        <time>2015-10-12T14:48:11Z</time>
      </trkpt>
      <trkpt lat="48.584" lon="-2.47172">
        <ele>76.6</ele>
        <time>2015-10-12T14:48:17Z</time>
      </trkpt>
      <trkpt lat="48.58417" lon="-2.47216">
        <ele>75.8</ele>
        <time>2015-10-12T14:48:23Z</time>
      </trkpt>
      <trkpt lat="48.58419" lon="-2.47263">
        <ele>75.4</ele>
        <time>2015-10-12T14:48:30Z</time>
      </trkpt>
      <trkpt lat="48.58417" lon="-2.47303">
        <ele>75.8</ele>
        <time>2015-10-12T14:48:36Z</time>
      </trkpt>
      <trkpt lat="48.58429" lon="-2.47343">
        <ele>76.6</ele>
        <time>2015-10-12T14:48:42Z</time>
      </trkpt>
      <trkpt lat="48.58452" lon="-2.47376">
        <ele>77.8</ele>
        <time>2015-10-12T14:48:49Z</time>
      </trkpt>
      <trkpt lat="48.58477" lon="-2.47421">
        <ele>79.2</ele>
        <time>2015-10-12T14:48:58Z</time>
      </trkpt>
      <trkpt lat="48.58482" lon="-2.47454">
        <ele>80</ele>
        <time>2015-10-12T14:49:03Z</time>
      </trkpt>
      <trkpt lat="48.58471" lon="-2.47494">
        <ele>81.3</ele>
        <time>2015-10-12T14:49:11Z</time>
      </trkpt>
      <trkpt lat="48.58439" lon="-2.47497">
        <ele>82.4</ele>
        <time>2015-10-12T14:49:18Z</time>
      </trkpt>
      <trkpt lat="48.58419" lon="-2.47501">
        <ele>82.9</ele>
        <time>2015-10-12T14:49:22Z</time>
      </trkpt>
      <trkpt lat="48.58387" lon="-2.475">
        <ele>83.4</ele>
        <time>2015-10-12T14:49:28Z</time>
      </trkpt>
      <trkpt lat="48.58354" lon="-2.47496">
        <ele>83.8</ele>
        <time>2015-10-12T14:49:34Z</time>
      </trkpt>
      <trkpt lat="48.58321" lon="-2.4749">
        <ele>84</ele>
        <time>2015-10-12T14:49:40Z</time>
      </trkpt>
      <trkpt lat="48.58297" lon="-2.47487">
        <ele>83.9</ele>
        <time>2015-10-12T14:49:44Z</time>
      </trkpt>
      <trkpt lat="48.58262" lon="-2.47495">
        <ele>83.7</ele>
        <time>2015-10-12T14:49:50Z</time>
      </trkpt>
      <trkpt lat="48.58232" lon="-2.47514">
        <ele>83.5</ele>
        <time>2015-10-12T14:49:56Z</time>
      </trkpt>
      <trkpt lat="48.58216" lon="-2.47534">
        <ele>83.4</ele>
        <time>2015-10-12T14:50:00Z</time>
      </trkpt>
      <trkpt lat="48.582" lon="-2.47571">
        <ele>83.4</ele>
        <time>2015-10-12T14:50:06Z</time>
      </trkpt>
      <trkpt lat="48.58163" lon="-2.47594">
        <ele>83.7</ele>
        <time>2015-10-12T14:50:14Z</time>
      </trkpt>
      <trkpt lat="48.58132" lon="-2.47609">
        <ele>84</ele>
        <time>2015-10-12T14:50:20Z</time>
      </trkpt>
      <trkpt lat="48.58112" lon="-2.47623">
        <ele>84.3</ele>
        <time>2015-10-12T14:50:24Z</time>
      </trkpt>
      <trkpt lat="48.58088" lon="-2.47654">
        <ele>84.7</ele>
        <time>2015-10-12T14:50:30Z</time>
      </trkpt>
      <trkpt lat="48.58071" lon="-2.47693">
        <ele>85.2</ele>
        <time>2015-10-12T14:50:36Z</time>
      </trkpt>
      <trkpt lat="48.58074" lon="-2.47739">
        <ele>85.8</ele>
        <time>2015-10-12T14:50:42Z</time>
      </trkpt>
      <trkpt lat="48.5808" lon="-2.47766">
        <ele>86.2</ele>
        <time>2015-10-12T14:50:46Z</time>
      </trkpt>
      <trkpt lat="48.58088" lon="-2.47817">
        <ele>87</ele>
        <time>2015-10-12T14:50:54Z</time>
      </trkpt>
      <trkpt lat="48.58107" lon="-2.47853">
        <ele>88</ele>
        <time>2015-10-12T14:51:03Z</time>
      </trkpt>
      <trkpt lat="48.58128" lon="-2.47853">
        <ele>88.8</ele>
        <time>2015-10-12T14:51:09Z</time>
      </trkpt>
      <trkpt lat="48.58164" lon="-2.47844">
        <ele>89.9</ele>
        <time>2015-10-12T14:51:18Z</time>
      </trkpt>
      <trkpt lat="48.58192" lon="-2.47832">
        <ele>90.4</ele>
        <time>2015-10-12T14:51:24Z</time>
      </trkpt>
      <trkpt lat="48.58222" lon="-2.47823">
        <ele>90.8</ele>
        <time>2015-10-12T14:51:30Z</time>
      </trkpt>
      <trkpt lat="48.58243" lon="-2.47821">
        <ele>90.9</ele>
        <time>2015-10-12T14:51:34Z</time>
      </trkpt>
      <trkpt lat="48.58273" lon="-2.47822">
        <ele>91.1</ele>
        <time>2015-10-12T14:51:40Z</time>
      </trkpt>
      <trkpt lat="48.58302" lon="-2.47822">
        <ele>91.3</ele>
        <time>2015-10-12T14:51:46Z</time>
      </trkpt>
      <trkpt lat="48.58297" lon="-2.47853">
        <ele>91.4</ele>
        <time>2015-10-12T14:51:53Z</time>
      </trkpt>
      <trkpt lat="48.58276" lon="-2.4789">
        <ele>91.4</ele>
        <time>2015-10-12T14:52:00Z</time>
      </trkpt>
      <trkpt lat="48.58254" lon="-2.47926">
        <ele>91.5</ele>
        <time>2015-10-12T14:52:07Z</time>
      </trkpt>
      <trkpt lat="48.58227" lon="-2.47965">
        <ele>91.5</ele>
        <time>2015-10-12T14:52:16Z</time>
      </trkpt>
      <trkpt lat="48.58209" lon="-2.47986">
        <ele>91.6</ele>
        <time>2015-10-12T14:52:22Z</time>
      </trkpt>
      <trkpt lat="48.5818" lon="-2.48019">
        <ele>92</ele>
        <time>2015-10-12T14:52:31Z</time>
      </trkpt>
      <trkpt lat="48.58151" lon="-2.4805">
        <ele>92.3</ele>
        <time>2015-10-12T14:52:40Z</time>
      </trkpt>
      <trkpt lat="48.58132" lon="-2.48092">
        <ele>92.8</ele>
        <time>2015-10-12T14:52:49Z</time>
      </trkpt>
      <trkpt lat="48.58126" lon="-2.48124">
        <ele>93.1</ele>
        <time>2015-10-12T14:52:55Z</time>
      </trkpt>
      <trkpt lat="48.58111" lon="-2.48167">
        <ele>93.5</ele>
        <time>2015-10-12T14:53:02Z</time>
      </trkpt>
      <trkpt lat="48.58091" lon="-2.48215">
        <ele>94.2</ele>
        <time>2015-10-12T14:53:11Z</time>
      </trkpt>
      <trkpt lat="48.58098" lon="-2.48245">
        <ele>94.5</ele>
        <time>2015-10-12T14:53:17Z</time>
      </trkpt>
      <trkpt lat="48.58123" lon="-2.48277">
        <ele>95.2</ele>
        <time>2015-10-12T14:53:24Z</time>
      </trkpt>
      <trkpt lat="48.58145" lon="-2.48307">
        <ele>95.6</ele>
        <time>2015-10-12T14:53:30Z</time>
      </trkpt>
      <trkpt lat="48.58169" lon="-2.48339">
        <ele>95.7</ele>
        <time>2015-10-12T14:53:36Z</time>
      </trkpt>
      <trkpt lat="48.58186" lon="-2.48355">
        <ele>95.8</ele>
        <time>2015-10-12T14:53:40Z</time>
      </trkpt>
      <trkpt lat="48.58212" lon="-2.48374">
        <ele>95.7</ele>
        <time>2015-10-12T14:53:46Z</time>
      </trkpt>
      <trkpt lat="48.58237" lon="-2.48397">
        <ele>95.4</ele>
        <time>2015-10-12T14:53:52Z</time>
      </trkpt>
      <trkpt lat="48.58246" lon="-2.48427">
        <ele>95.2</ele>
        <time>2015-10-12T14:53:57Z</time>
      </trkpt>
      <trkpt lat="48.58246" lon="-2.4847">
        <ele>94.9</ele>
        <time>2015-10-12T14:54:03Z</time>
      </trkpt>
      <trkpt lat="48.58244" lon="-2.48512">
        <ele>94.8</ele>
        <time>2015-10-12T14:54:09Z</time>
      </trkpt>
      <trkpt lat="48.58234" lon="-2.48554">
        <ele>94.7</ele>
        <time>2015-10-12T14:54:15Z</time>
      </trkpt>
      <trkpt lat="48.58221" lon="-2.48576">
        <ele>94.7</ele>
        <time>2015-10-12T14:54:19Z</time>
      </trkpt>
      <trkpt lat="48.58195" lon="-2.48602">
        <ele>94.9</ele>
        <time>2015-10-12T14:54:25Z</time>
      </trkpt>
      <trkpt lat="48.58171" lon="-2.4863">
        <ele>95.4</ele>
        <time>2015-10-12T14:54:31Z</time>
      </trkpt>
      <trkpt lat="48.58151" lon="-2.48661">
        <ele>95.9</ele>
        <time>2015-10-12T14:54:37Z</time>
      </trkpt>
      <trkpt lat="48.58151" lon="-2.48691">
        <ele>96.4</ele>
        <time>2015-10-12T14:54:41Z</time>
      </trkpt>
      <trkpt lat="48.58168" lon="-2.4873">
        <ele>96.9</ele>
        <time>2015-10-12T14:54:47Z</time>
      </trkpt>
      <trkpt lat="48.58185" lon="-2.4877">
        <ele>97.2</ele>
        <time>2015-10-12T14:54:53Z</time>
      </trkpt>
      <trkpt lat="48.58197" lon="-2.48797">
        <ele>97.4</ele>
        <time>2015-10-12T14:54:57Z</time>
      </trkpt>
      <trkpt lat="48.58215" lon="-2.48838">
        <ele>97.7</ele>
        <time>2015-10-12T14:55:03Z</time>
      </trkpt>
      <trkpt lat="48.5823" lon="-2.48877">
        <ele>97.8</ele>
        <time>2015-10-12T14:55:09Z</time>
      </trkpt>
      <trkpt lat="48.58258" lon="-2.48848">
        <ele>97.9</ele>
        <time>2015-10-12T14:55:16Z</time>
      </trkpt>
      <trkpt lat="48.58278" lon="-2.48831">
        <ele>97.8</ele>
        <time>2015-10-12T14:55:20Z</time>
      </trkpt>
      <trkpt lat="48.58308" lon="-2.48811">
        <ele>97.5</ele>
        <time>2015-10-12T14:55:26Z</time>
      </trkpt>
      <trkpt lat="48.58337" lon="-2.48792">
        <ele>97.2</ele>
        <time>2015-10-12T14:55:32Z</time>
      </trkpt>
      <trkpt lat="48.58359" lon="-2.48785">
        <ele>96.9</ele>
        <time>2015-10-12T14:55:37Z</time>
      </trkpt>
      <trkpt lat="48.5839" lon="-2.48781">
        <ele>96.6</ele>
        <time>2015-10-12T14:55:43Z</time>
      </trkpt>
      <trkpt lat="48.58419" lon="-2.4878">
        <ele>96.4</ele>
        <time>2015-10-12T14:55:49Z</time>
      </trkpt>
      <trkpt lat="48.58452" lon="-2.48781">
        <ele>96.3</ele>
        <time>2015-10-12T14:55:55Z</time>
      </trkpt>
      <trkpt lat="48.58472" lon="-2.48784">
        <ele>96.4</ele>
        <time>2015-10-12T14:55:59Z</time>
      </trkpt>
      <trkpt lat="48.58502" lon="-2.48798">
        <ele>96.4</ele>
        <time>2015-10-12T14:56:05Z</time>
      </trkpt>
      <trkpt lat="48.58525" lon="-2.4883">
        <ele>96.9</ele>
        <time>2015-10-12T14:56:12Z</time>
      </trkpt>
      <trkpt lat="48.58547" lon="-2.4886">
        <ele>97.5</ele>
        <time>2015-10-12T14:56:18Z</time>
      </trkpt>
      <trkpt lat="48.5856" lon="-2.48881">
        <ele>98</ele>
        <time>2015-10-12T14:56:22Z</time>
      </trkpt>
      <trkpt lat="48.58588" lon="-2.48919">
        <ele>98.7</ele>
        <time>2015-10-12T14:56:30Z</time>
      </trkpt>
      <trkpt lat="48.5861" lon="-2.48948">
        <ele>99.1</ele>
        <time>2015-10-12T14:56:36Z</time>
      </trkpt>
      <trkpt lat="48.58625" lon="-2.48967">
        <ele>99.3</ele>
        <time>2015-10-12T14:56:40Z</time>
      </trkpt>
      <trkpt lat="48.58651" lon="-2.49001">
        <ele>99.6</ele>
        <time>2015-10-12T14:56:48Z</time>
      </trkpt>
      <trkpt lat="48.58672" lon="-2.49035">
        <ele>100</ele>
        <time>2015-10-12T14:56:55Z</time>
      </trkpt>
      <trkpt lat="48.58704" lon="-2.49062">
        <ele>100.3</ele>
        <time>2015-10-12T14:57:04Z</time>
      </trkpt>
      <trkpt lat="48.58722" lon="-2.49075">
        <ele>100.5</ele>
        <time>2015-10-12T14:57:10Z</time>
      </trkpt>
      <trkpt lat="48.5875" lon="-2.49089">
        <ele>100.9</ele>
        <time>2015-10-12T14:57:19Z</time>
      </trkpt>
      <trkpt lat="48.58782" lon="-2.49101">
        <ele>101.6</ele>
        <time>2015-10-12T14:57:28Z</time>
      </trkpt>
      <trkpt lat="48.58804" lon="-2.4911">
        <ele>102</ele>
        <time>2015-10-12T14:57:34Z</time>
      </trkpt>
      <trkpt lat="48.58834" lon="-2.49126">
        <ele>103</ele>
        <time>2015-10-12T14:57:43Z</time>
      </trkpt>
      <trkpt lat="48.58869" lon="-2.49135">
        <ele>104.1</ele>
        <time>2015-10-12T14:57:52Z</time>
      </trkpt>
      <trkpt lat="48.58901" lon="-2.49146">
        <ele>105.5</ele>
        <time>2015-10-12T14:58:01Z</time>
      </trkpt>
      <trkpt lat="48.58923" lon="-2.49156">
        <ele>106.5</ele>
        <time>2015-10-12T14:58:07Z</time>
      </trkpt>
      <trkpt lat="48.58957" lon="-2.49173">
        <ele>107.7</ele>
        <time>2015-10-12T14:58:16Z</time>
      </trkpt>
      <trkpt lat="48.58995" lon="-2.49187">
        <ele>108.6</ele>
        <time>2015-10-12T14:58:25Z</time>
      </trkpt>
      <trkpt lat="48.59028" lon="-2.49199">
        <ele>109.2</ele>
        <time>2015-10-12T14:58:32Z</time>
      </trkpt>
      <trkpt lat="48.59047" lon="-2.49207">
        <ele>109.4</ele>
        <time>2015-10-12T14:58:36Z</time>
      </trkpt>
      <trkpt lat="48.59077" lon="-2.4922">
        <ele>109.7</ele>
        <time>2015-10-12T14:58:42Z</time>
      </trkpt>
      <trkpt lat="48.59104" lon="-2.49231">
        <ele>110</ele>
        <time>2015-10-12T14:58:48Z</time>
      </trkpt>
      <trkpt lat="48.59124" lon="-2.49239">
        <ele>110.2</ele>
        <time>2015-10-12T14:58:54Z</time>
      </trkpt>
      <trkpt lat="48.59152" lon="-2.49256">
        <ele>110.5</ele>
        <time>2015-10-12T14:59:14Z</time>
      </trkpt>
      <trkpt lat="48.59172" lon="-2.49218">
        <ele>110.4</ele>
        <time>2015-10-12T14:59:20Z</time>
      </trkpt>
      <trkpt lat="48.59204" lon="-2.49202">
        <ele>110.2</ele>
        <time>2015-10-12T14:59:26Z</time>
      </trkpt>
      <trkpt lat="48.59228" lon="-2.49207">
        <ele>110</ele>
        <time>2015-10-12T14:59:30Z</time>
      </trkpt>
      <trkpt lat="48.59265" lon="-2.49212">
        <ele>109.6</ele>
        <time>2015-10-12T14:59:36Z</time>
      </trkpt>
      <trkpt lat="48.59296" lon="-2.49214">
        <ele>109.2</ele>
        <time>2015-10-12T14:59:43Z</time>
      </trkpt>
      <trkpt lat="48.59313" lon="-2.49196">
        <ele>108.7</ele>
        <time>2015-10-12T14:59:50Z</time>
      </trkpt>
      <trkpt lat="48.59334" lon="-2.49163">
        <ele>108.3</ele>
        <time>2015-10-12T14:59:57Z</time>
      </trkpt>
      <trkpt lat="48.59364" lon="-2.49136">
        <ele>107.3</ele>
        <time>2015-10-12T15:00:05Z</time>
      </trkpt>
      <trkpt lat="48.59399" lon="-2.49128">
        <ele>106.7</ele>
        <time>2015-10-12T15:00:13Z</time>
      </trkpt>
      <trkpt lat="48.5942" lon="-2.49132">
        <ele>106.2</ele>
        <time>2015-10-12T15:00:17Z</time>
      </trkpt>
      <trkpt lat="48.59456" lon="-2.49137">
        <ele>105.3</ele>
        <time>2015-10-12T15:00:23Z</time>
      </trkpt>
      <trkpt lat="48.59494" lon="-2.49142">
        <ele>104.2</ele>
        <time>2015-10-12T15:00:29Z</time>
      </trkpt>
      <trkpt lat="48.59535" lon="-2.49146">
        <ele>102.6</ele>
        <time>2015-10-12T15:00:35Z</time>
      </trkpt>
      <trkpt lat="48.59562" lon="-2.49149">
        <ele>101.5</ele>
        <time>2015-10-12T15:00:39Z</time>
      </trkpt>
      <trkpt lat="48.59607" lon="-2.49146">
        <ele>99.4</ele>
        <time>2015-10-12T15:00:45Z</time>
      </trkpt>
      <trkpt lat="48.59654" lon="-2.49141">
        <ele>97.1</ele>
        <time>2015-10-12T15:00:51Z</time>
      </trkpt>
      <trkpt lat="48.59687" lon="-2.49138">
        <ele>95.1</ele>
        <time>2015-10-12T15:00:55Z</time>
      </trkpt>
      <trkpt lat="48.59739" lon="-2.49133">
        <ele>91.8</ele>
        <time>2015-10-12T15:01:01Z</time>
      </trkpt>
      <trkpt lat="48.59775" lon="-2.49134">
        <ele>89.4</ele>
        <time>2015-10-12T15:01:05Z</time>
      </trkpt>
      <trkpt lat="48.59827" lon="-2.49141">
        <ele>85.7</ele>
        <time>2015-10-12T15:01:11Z</time>
      </trkpt>
      <trkpt lat="48.59863" lon="-2.49151">
        <ele>83.3</ele>
        <time>2015-10-12T15:01:15Z</time>
      </trkpt>
      <trkpt lat="48.59913" lon="-2.49162">
        <ele>79.6</ele>
        <time>2015-10-12T15:01:21Z</time>
      </trkpt>
      <trkpt lat="48.59963" lon="-2.49172">
        <ele>76</ele>
        <time>2015-10-12T15:01:27Z</time>
      </trkpt>
      <trkpt lat="48.59992" lon="-2.49163">
        <ele>73.6</ele>
        <time>2015-10-12T15:01:31Z</time>
      </trkpt>
      <trkpt lat="48.60029" lon="-2.49116">
        <ele>70.2</ele>
        <time>2015-10-12T15:01:37Z</time>
      </trkpt>
      <trkpt lat="48.60059" lon="-2.49068">
        <ele>67.3</ele>
        <time>2015-10-12T15:01:43Z</time>
      </trkpt>
      <trkpt lat="48.60081" lon="-2.49028">
        <ele>65.2</ele>
        <time>2015-10-12T15:01:49Z</time>
      </trkpt>
      <trkpt lat="48.60093" lon="-2.49002">
        <ele>64.1</ele>
        <time>2015-10-12T15:01:53Z</time>
      </trkpt>
      <trkpt lat="48.60109" lon="-2.48958">
        <ele>62.8</ele>
        <time>2015-10-12T15:01:59Z</time>
      </trkpt>
      <trkpt lat="48.60125" lon="-2.4891">
        <ele>61.9</ele>
        <time>2015-10-12T15:02:05Z</time>
      </trkpt>
      <trkpt lat="48.60139" lon="-2.48862">
        <ele>61.3</ele>
        <time>2015-10-12T15:02:11Z</time>
      </trkpt>
      <trkpt lat="48.60149" lon="-2.48834">
        <ele>61</ele>
        <time>2015-10-12T15:02:15Z</time>
      </trkpt>
      <trkpt lat="48.60165" lon="-2.48788">
        <ele>60.7</ele>
        <time>2015-10-12T15:02:21Z</time>
      </trkpt>
      <trkpt lat="48.60185" lon="-2.4874">
        <ele>60.4</ele>
        <time>2015-10-12T15:02:27Z</time>
      </trkpt>
      <trkpt lat="48.602" lon="-2.48709">
        <ele>60.3</ele>
        <time>2015-10-12T15:02:31Z</time>
      </trkpt>
      <trkpt lat="48.60221" lon="-2.48664">
        <ele>60.2</ele>
        <time>2015-10-12T15:02:37Z</time>
      </trkpt>
      <trkpt lat="48.60242" lon="-2.48622">
        <ele>60.1</ele>
        <time>2015-10-12T15:02:43Z</time>
      </trkpt>
      <trkpt lat="48.6026" lon="-2.48582">
        <ele>60.1</ele>
        <time>2015-10-12T15:02:49Z</time>
      </trkpt>
      <trkpt lat="48.60272" lon="-2.48556">
        <ele>60.3</ele>
        <time>2015-10-12T15:02:53Z</time>
      </trkpt>
      <trkpt lat="48.60289" lon="-2.48519">
        <ele>60.6</ele>
        <time>2015-10-12T15:02:59Z</time>
      </trkpt>
      <trkpt lat="48.60307" lon="-2.48485">
        <ele>60.9</ele>
        <time>2015-10-12T15:03:05Z</time>
      </trkpt>
      <trkpt lat="48.60319" lon="-2.48463">
        <ele>61.2</ele>
        <time>2015-10-12T15:03:09Z</time>
      </trkpt>
      <trkpt lat="48.60339" lon="-2.4843">
        <ele>61.7</ele>
        <time>2015-10-12T15:03:15Z</time>
      </trkpt>
      <trkpt lat="48.60358" lon="-2.48395">
        <ele>62.1</ele>
        <time>2015-10-12T15:03:21Z</time>
      </trkpt>
      <trkpt lat="48.6038" lon="-2.48354">
        <ele>62.4</ele>
        <time>2015-10-12T15:03:27Z</time>
      </trkpt>
      <trkpt lat="48.60396" lon="-2.48325">
        <ele>62.5</ele>
        <time>2015-10-12T15:03:31Z</time>
      </trkpt>
      <trkpt lat="48.60419" lon="-2.48281">
        <ele>62.6</ele>
        <time>2015-10-12T15:03:37Z</time>
      </trkpt>
      <trkpt lat="48.60441" lon="-2.48235">
        <ele>62.4</ele>
        <time>2015-10-12T15:03:43Z</time>
      </trkpt>
      <trkpt lat="48.60466" lon="-2.48188">
        <ele>62</ele>
        <time>2015-10-12T15:03:49Z</time>
      </trkpt>
      <trkpt lat="48.60485" lon="-2.48157">
        <ele>61.6</ele>
        <time>2015-10-12T15:03:53Z</time>
      </trkpt>
      <trkpt lat="48.60515" lon="-2.48114">
        <ele>60.9</ele>
        <time>2015-10-12T15:03:59Z</time>
      </trkpt>
      <trkpt lat="48.60541" lon="-2.4807">
        <ele>60.1</ele>
        <time>2015-10-12T15:04:05Z</time>
      </trkpt>
      <trkpt lat="48.60554" lon="-2.48042">
        <ele>59.6</ele>
        <time>2015-10-12T15:04:09Z</time>
      </trkpt>
      <trkpt lat="48.60579" lon="-2.48013">
        <ele>59.2</ele>
        <time>2015-10-12T15:04:15Z</time>
      </trkpt>
      <trkpt lat="48.6061" lon="-2.47999">
        <ele>59.1</ele>
        <time>2015-10-12T15:04:21Z</time>
      </trkpt>
      <trkpt lat="48.60638" lon="-2.47991">
        <ele>59.2</ele>
        <time>2015-10-12T15:04:27Z</time>
      </trkpt>
      <trkpt lat="48.60662" lon="-2.47985">
        <ele>59.3</ele>
        <time>2015-10-12T15:04:32Z</time>
      </trkpt>
      <trkpt lat="48.60699" lon="-2.47972">
        <ele>59.5</ele>
        <time>2015-10-12T15:04:38Z</time>
      </trkpt>
      <trkpt lat="48.60732" lon="-2.47967">
        <ele>60</ele>
        <time>2015-10-12T15:04:44Z</time>
      </trkpt>
      <trkpt lat="48.60752" lon="-2.47971">
        <ele>60.3</ele>
        <time>2015-10-12T15:04:48Z</time>
      </trkpt>
      <trkpt lat="48.60779" lon="-2.47984">
        <ele>61</ele>
        <time>2015-10-12T15:04:54Z</time>
      </trkpt>
      <trkpt lat="48.60802" lon="-2.48007">
        <ele>61.9</ele>
        <time>2015-10-12T15:05:00Z</time>
      </trkpt>
      <trkpt lat="48.60809" lon="-2.48015">
        <ele>63.9</ele>
        <time>2015-10-12T15:05:17Z</time>
      </trkpt>
      <trkpt lat="48.60827" lon="-2.48036">
        <ele>64.3</ele>
        <time>2015-10-12T15:05:23Z</time>
      </trkpt>
      <trkpt lat="48.60857" lon="-2.48062">
        <ele>64.9</ele>
        <time>2015-10-12T15:05:31Z</time>
      </trkpt>
      <trkpt lat="48.60885" lon="-2.48083">
        <ele>65.2</ele>
        <time>2015-10-12T15:05:37Z</time>
      </trkpt>
      <trkpt lat="48.6092" lon="-2.48104">
        <ele>64.6</ele>
        <time>2015-10-12T15:05:43Z</time>
      </trkpt>
      <trkpt lat="48.60944" lon="-2.48104">
        <ele>63.8</ele>
        <time>2015-10-12T15:05:47Z</time>
      </trkpt>
      <trkpt lat="48.6097" lon="-2.48074">
        <ele>62.8</ele>
        <time>2015-10-12T15:05:53Z</time>
      </trkpt>
      <trkpt lat="48.60999" lon="-2.48041">
        <ele>61.8</ele>
        <time>2015-10-12T15:05:59Z</time>
      </trkpt>
      <trkpt lat="48.61019" lon="-2.48019">
        <ele>61</ele>
        <time>2015-10-12T15:06:03Z</time>
      </trkpt>
      <trkpt lat="48.61047" lon="-2.47987">
        <ele>59.9</ele>
        <time>2015-10-12T15:06:09Z</time>
      </trkpt>
      <trkpt lat="48.61076" lon="-2.47955">
        <ele>58.6</ele>
        <time>2015-10-12T15:06:15Z</time>
      </trkpt>
      <trkpt lat="48.61106" lon="-2.47923">
        <ele>57.3</ele>
        <time>2015-10-12T15:06:21Z</time>
      </trkpt>
      <trkpt lat="48.61124" lon="-2.47902">
        <ele>56.3</ele>
        <time>2015-10-12T15:06:25Z</time>
      </trkpt>
      <trkpt lat="48.61151" lon="-2.4787">
        <ele>54.9</ele>
        <time>2015-10-12T15:06:31Z</time>
      </trkpt>
      <trkpt lat="48.61178" lon="-2.47834">
        <ele>53.6</ele>
        <time>2015-10-12T15:06:37Z</time>
      </trkpt>
      <trkpt lat="48.61204" lon="-2.47797">
        <ele>52.4</ele>
        <time>2015-10-12T15:06:43Z</time>
      </trkpt>
      <trkpt lat="48.61221" lon="-2.47772">
        <ele>51.6</ele>
        <time>2015-10-12T15:06:47Z</time>
      </trkpt>
      <trkpt lat="48.61248" lon="-2.47734">
        <ele>50.4</ele>
        <time>2015-10-12T15:06:53Z</time>
      </trkpt>
      <trkpt lat="48.61277" lon="-2.47702">
        <ele>49.2</ele>
        <time>2015-10-12T15:06:59Z</time>
      </trkpt>
      <trkpt lat="48.61297" lon="-2.47682">
        <ele>48.3</ele>
        <time>2015-10-12T15:07:03Z</time>
      </trkpt>
      <trkpt lat="48.61328" lon="-2.47652">
        <ele>47</ele>
        <time>2015-10-12T15:07:09Z</time>
      </trkpt>
      <trkpt lat="48.61355" lon="-2.47618">
        <ele>46</ele>
        <time>2015-10-12T15:07:15Z</time>
      </trkpt>
      <trkpt lat="48.61376" lon="-2.47581">
        <ele>45.1</ele>
        <time>2015-10-12T15:07:21Z</time>
      </trkpt>
      <trkpt lat="48.61388" lon="-2.47554">
        <ele>44.6</ele>
        <time>2015-10-12T15:07:25Z</time>
      </trkpt>
      <trkpt lat="48.61406" lon="-2.47515">
        <ele>43.9</ele>
        <time>2015-10-12T15:07:31Z</time>
      </trkpt>
      <trkpt lat="48.61424" lon="-2.47475">
        <ele>43.1</ele>
        <time>2015-10-12T15:07:37Z</time>
      </trkpt>
      <trkpt lat="48.61438" lon="-2.47445">
        <ele>42.4</ele>
        <time>2015-10-12T15:07:41Z</time>
      </trkpt>
      <trkpt lat="48.61457" lon="-2.47402">
        <ele>41.3</ele>
        <time>2015-10-12T15:07:47Z</time>
      </trkpt>
      <trkpt lat="48.61476" lon="-2.47362">
        <ele>40.1</ele>
        <time>2015-10-12T15:07:53Z</time>
      </trkpt>
      <trkpt lat="48.61498" lon="-2.47327">
        <ele>39.1</ele>
        <time>2015-10-12T15:07:59Z</time>
      </trkpt>
      <trkpt lat="48.61502" lon="-2.47301">
        <ele>37.9</ele>
        <time>2015-10-12T15:08:07Z</time>
      </trkpt>
      <trkpt lat="48.61482" lon="-2.47263">
        <ele>37.1</ele>
        <time>2015-10-12T15:08:15Z</time>
      </trkpt>
      <trkpt lat="48.61466" lon="-2.47228">
        <ele>37</ele>
        <time>2015-10-12T15:08:21Z</time>
      </trkpt>
      <trkpt lat="48.61455" lon="-2.47188">
        <ele>37.3</ele>
        <time>2015-10-12T15:08:27Z</time>
      </trkpt>
      <trkpt lat="48.6145" lon="-2.4716">
        <ele>37.7</ele>
        <time>2015-10-12T15:08:31Z</time>
      </trkpt>
      <trkpt lat="48.61447" lon="-2.47117">
        <ele>38.5</ele>
        <time>2015-10-12T15:08:37Z</time>
      </trkpt>
      <trkpt lat="48.61468" lon="-2.4709">
        <ele>39.7</ele>
        <time>2015-10-12T15:08:45Z</time>
      </trkpt>
      <trkpt lat="48.61488" lon="-2.47101">
        <ele>40.1</ele>
        <time>2015-10-12T15:08:49Z</time>
      </trkpt>
      <trkpt lat="48.61518" lon="-2.47121">
        <ele>40.5</ele>
        <time>2015-10-12T15:08:55Z</time>
      </trkpt>
      <trkpt lat="48.61542" lon="-2.47148">
        <ele>40.7</ele>
        <time>2015-10-12T15:09:01Z</time>
      </trkpt>
      <trkpt lat="48.61573" lon="-2.47153">
        <ele>41.6</ele>
        <time>2015-10-12T15:09:08Z</time>
      </trkpt>
      <trkpt lat="48.61593" lon="-2.47145">
        <ele>42.7</ele>
        <time>2015-10-12T15:09:14Z</time>
      </trkpt>
      <trkpt lat="48.61627" lon="-2.47132">
        <ele>44</ele>
        <time>2015-10-12T15:09:23Z</time>
      </trkpt>
      <trkpt lat="48.61654" lon="-2.47105">
        <ele>44.2</ele>
        <time>2015-10-12T15:09:29Z</time>
      </trkpt>
      <trkpt lat="48.61669" lon="-2.47078">
        <ele>44.1</ele>
        <time>2015-10-12T15:09:33Z</time>
      </trkpt>
      <trkpt lat="48.61694" lon="-2.47031">
        <ele>43.7</ele>
        <time>2015-10-12T15:09:39Z</time>
      </trkpt>
      <trkpt lat="48.61718" lon="-2.46987">
        <ele>43</ele>
        <time>2015-10-12T15:09:45Z</time>
      </trkpt>
      <trkpt lat="48.61745" lon="-2.46949">
        <ele>42.1</ele>
        <time>2015-10-12T15:09:51Z</time>
      </trkpt>
      <trkpt lat="48.61763" lon="-2.46929">
        <ele>41.6</ele>
        <time>2015-10-12T15:09:55Z</time>
      </trkpt>
      <trkpt lat="48.61787" lon="-2.46897">
        <ele>41.1</ele>
        <time>2015-10-12T15:10:01Z</time>
      </trkpt>
      <trkpt lat="48.6181" lon="-2.46864">
        <ele>40.5</ele>
        <time>2015-10-12T15:10:07Z</time>
      </trkpt>
      <trkpt lat="48.61836" lon="-2.46836">
        <ele>39.9</ele>
        <time>2015-10-12T15:10:13Z</time>
      </trkpt>
      <trkpt lat="48.61855" lon="-2.46815">
        <ele>39.3</ele>
        <time>2015-10-12T15:10:17Z</time>
      </trkpt>
      <trkpt lat="48.61881" lon="-2.46776">
        <ele>38.4</ele>
        <time>2015-10-12T15:10:23Z</time>
      </trkpt>
      <trkpt lat="48.61904" lon="-2.46735">
        <ele>37.5</ele>
        <time>2015-10-12T15:10:29Z</time>
      </trkpt>
      <trkpt lat="48.61915" lon="-2.46706">
        <ele>36.8</ele>
        <time>2015-10-12T15:10:33Z</time>
      </trkpt>
      <trkpt lat="48.61929" lon="-2.46666">
        <ele>36.1</ele>
        <time>2015-10-12T15:10:39Z</time>
      </trkpt>
      <trkpt lat="48.61945" lon="-2.46622">
        <ele>34.6</ele>
        <time>2015-10-12T15:10:45Z</time>
      </trkpt>
      <trkpt lat="48.61971" lon="-2.46599">
        <ele>31.6</ele>
        <time>2015-10-12T15:10:56Z</time>
      </trkpt>
      <trkpt lat="48.61991" lon="-2.46596">
        <ele>30.5</ele>
        <time>2015-10-12T15:11:00Z</time>
      </trkpt>
      <trkpt lat="48.62027" lon="-2.46585">
        <ele>28.8</ele>
        <time>2015-10-12T15:11:06Z</time>
      </trkpt>
      <trkpt lat="48.62066" lon="-2.46572">
        <ele>26.9</ele>
        <time>2015-10-12T15:11:12Z</time>
      </trkpt>
      <trkpt lat="48.62093" lon="-2.4657">
        <ele>25.1</ele>
        <time>2015-10-12T15:11:16Z</time>
      </trkpt>
      <trkpt lat="48.62129" lon="-2.46566">
        <ele>23.2</ele>
        <time>2015-10-12T15:11:20Z</time>
      </trkpt>
      <trkpt lat="48.62162" lon="-2.46552">
        <ele>21.6</ele>
        <time>2015-10-12T15:11:24Z</time>
      </trkpt>
      <trkpt lat="48.622" lon="-2.46559">
        <ele>19.8</ele>
        <time>2015-10-12T15:11:30Z</time>
      </trkpt>
      <trkpt lat="48.62221" lon="-2.46575">
        <ele>19.5</ele>
        <time>2015-10-12T15:11:35Z</time>
      </trkpt>
      <trkpt lat="48.62239" lon="-2.46625">
        <ele>19.6</ele>
        <time>2015-10-12T15:11:45Z</time>
      </trkpt>
      <trkpt lat="48.62254" lon="-2.4668">
        <ele>18.8</ele>
        <time>2015-10-12T15:11:51Z</time>
      </trkpt>
      <trkpt lat="48.62257" lon="-2.46728">
        <ele>18.2</ele>
        <time>2015-10-12T15:11:59Z</time>
      </trkpt>
      <trkpt lat="48.6225" lon="-2.46761">
        <ele>18.4</ele>
        <time>2015-10-12T15:12:05Z</time>
      </trkpt>
      <trkpt lat="48.6223" lon="-2.46796">
        <ele>19.5</ele>
        <time>2015-10-12T15:12:16Z</time>
      </trkpt>
      <trkpt lat="48.62205" lon="-2.46826">
        <ele>21.5</ele>
        <time>2015-10-12T15:12:28Z</time>
      </trkpt>
      <trkpt lat="48.62188" lon="-2.46847">
        <ele>22.4</ele>
        <time>2015-10-12T15:12:34Z</time>
      </trkpt>
      <trkpt lat="48.62167" lon="-2.4688">
        <ele>25.9</ele>
        <time>2015-10-12T15:12:47Z</time>
      </trkpt>
      <trkpt lat="48.62193" lon="-2.46872">
        <ele>29.8</ele>
        <time>2015-10-12T15:13:02Z</time>
      </trkpt>
      <trkpt lat="48.6222" lon="-2.46847">
        <ele>31.7</ele>
        <time>2015-10-12T15:13:12Z</time>
      </trkpt>
      <trkpt lat="48.62236" lon="-2.4683">
        <ele>32.9</ele>
        <time>2015-10-12T15:13:19Z</time>
      </trkpt>
      <trkpt lat="48.6226" lon="-2.46799">
        <ele>34.5</ele>
        <time>2015-10-12T15:13:29Z</time>
      </trkpt>
      <trkpt lat="48.62284" lon="-2.46771">
        <ele>35.4</ele>
        <time>2015-10-12T15:13:36Z</time>
      </trkpt>
      <trkpt lat="48.62299" lon="-2.46748">
        <ele>36.1</ele>
        <time>2015-10-12T15:13:41Z</time>
      </trkpt>
      <trkpt lat="48.62322" lon="-2.46709">
        <ele>37.4</ele>
        <time>2015-10-12T15:13:50Z</time>
      </trkpt>
      <trkpt lat="48.62342" lon="-2.46672">
        <ele>38.6</ele>
        <time>2015-10-12T15:13:59Z</time>
      </trkpt>
      <trkpt lat="48.62366" lon="-2.46631">
        <ele>39.8</ele>
        <time>2015-10-12T15:14:08Z</time>
      </trkpt>
      <trkpt lat="48.6238" lon="-2.46607">
        <ele>40.6</ele>
        <time>2015-10-12T15:14:14Z</time>
      </trkpt>
      <trkpt lat="48.62404" lon="-2.46578">
        <ele>41.8</ele>
        <time>2015-10-12T15:14:23Z</time>
      </trkpt>
      <trkpt lat="48.62427" lon="-2.46556">
        <ele>42.9</ele>
        <time>2015-10-12T15:14:33Z</time>
      </trkpt>
      <trkpt lat="48.6246" lon="-2.4656">
        <ele>44</ele>
        <time>2015-10-12T15:14:42Z</time>
      </trkpt>
      <trkpt lat="48.62462" lon="-2.46582">
        <ele>46.8</ele>
        <time>2015-10-12T15:15:29Z</time>
      </trkpt>
      <trkpt lat="48.62446" lon="-2.46619">
        <ele>47.3</ele>
        <time>2015-10-12T15:15:56Z</time>
      </trkpt>
      <trkpt lat="48.62422" lon="-2.46652">
        <ele>47.5</ele>
        <time>2015-10-12T15:16:06Z</time>
      </trkpt>
      <trkpt lat="48.62404" lon="-2.46671">
        <ele>47.6</ele>
        <time>2015-10-12T15:16:13Z</time>
      </trkpt>
      <trkpt lat="48.62374" lon="-2.467">
        <ele>48.1</ele>
        <time>2015-10-12T15:16:23Z</time>
      </trkpt>
      <trkpt lat="48.62357" lon="-2.46738">
        <ele>48.5</ele>
        <time>2015-10-12T15:16:32Z</time>
      </trkpt>
      <trkpt lat="48.62368" lon="-2.46785">
        <ele>49.6</ele>
        <time>2015-10-12T15:16:41Z</time>
      </trkpt>
      <trkpt lat="48.62374" lon="-2.46821">
        <ele>50.1</ele>
        <time>2015-10-12T15:16:47Z</time>
      </trkpt>
      <trkpt lat="48.62393" lon="-2.46867">
        <ele>50.6</ele>
        <time>2015-10-12T15:16:56Z</time>
      </trkpt>
      <trkpt lat="48.6242" lon="-2.469">
        <ele>50.8</ele>
        <time>2015-10-12T15:17:05Z</time>
      </trkpt>
      <trkpt lat="48.62437" lon="-2.46922">
        <ele>50.9</ele>
        <time>2015-10-12T15:17:11Z</time>
      </trkpt>
      <trkpt lat="48.62463" lon="-2.46953">
        <ele>50.5</ele>
        <time>2015-10-12T15:17:20Z</time>
      </trkpt>
      <trkpt lat="48.62492" lon="-2.46991">
        <ele>49.9</ele>
        <time>2015-10-12T15:17:29Z</time>
      </trkpt>
      <trkpt lat="48.62522" lon="-2.47026">
        <ele>48.8</ele>
        <time>2015-10-12T15:17:35Z</time>
      </trkpt>
      <trkpt lat="48.62543" lon="-2.47046">
        <ele>47.6</ele>
        <time>2015-10-12T15:17:39Z</time>
      </trkpt>
      <trkpt lat="48.62566" lon="-2.47012">
        <ele>45.4</ele>
        <time>2015-10-12T15:17:46Z</time>
      </trkpt>
      <trkpt lat="48.62591" lon="-2.46989">
        <ele>43.7</ele>
        <time>2015-10-12T15:17:52Z</time>
      </trkpt>
      <trkpt lat="48.62615" lon="-2.47018">
        <ele>42.2</ele>
        <time>2015-10-12T15:17:58Z</time>
      </trkpt>
      <trkpt lat="48.62632" lon="-2.47042">
        <ele>41.3</ele>
        <time>2015-10-12T15:18:02Z</time>
      </trkpt>
      <trkpt lat="48.62653" lon="-2.47091">
        <ele>39.8</ele>
        <time>2015-10-12T15:18:08Z</time>
      </trkpt>
      <trkpt lat="48.62686" lon="-2.47109">
        <ele>38.2</ele>
        <time>2015-10-12T15:18:14Z</time>
      </trkpt>
      <trkpt lat="48.62706" lon="-2.47086">
        <ele>37.2</ele>
        <time>2015-10-12T15:18:18Z</time>
      </trkpt>
      <trkpt lat="48.62725" lon="-2.47038">
        <ele>35.7</ele>
        <time>2015-10-12T15:18:24Z</time>
      </trkpt>
      <trkpt lat="48.62739" lon="-2.46994">
        <ele>33.9</ele>
        <time>2015-10-12T15:18:30Z</time>
      </trkpt>
      <trkpt lat="48.62752" lon="-2.46949">
        <ele>31.9</ele>
        <time>2015-10-12T15:18:36Z</time>
      </trkpt>
      <trkpt lat="48.62743" lon="-2.46933">
        <ele>27.9</ele>
        <time>2015-10-12T15:18:53Z</time>
      </trkpt>
      <trkpt lat="48.62712" lon="-2.4691">
        <ele>27.4</ele>
        <time>2015-10-12T15:19:01Z</time>
      </trkpt>
      <trkpt lat="48.62704" lon="-2.46874">
        <ele>28.5</ele>
        <time>2015-10-12T15:19:09Z</time>
      </trkpt>
      <trkpt lat="48.62719" lon="-2.46854">
        <ele>28.9</ele>
        <time>2015-10-12T15:19:13Z</time>
      </trkpt>
      <trkpt lat="48.62745" lon="-2.46816">
        <ele>28.6</ele>
        <time>2015-10-12T15:19:19Z</time>
      </trkpt>
      <trkpt lat="48.62775" lon="-2.46769">
        <ele>27.3</ele>
        <time>2015-10-12T15:19:25Z</time>
      </trkpt>
      <trkpt lat="48.62803" lon="-2.46707">
        <ele>25</ele>
        <time>2015-10-12T15:19:31Z</time>
      </trkpt>
      <trkpt lat="48.62816" lon="-2.46664">
        <ele>23.2</ele>
        <time>2015-10-12T15:19:35Z</time>
      </trkpt>
      <trkpt lat="48.6284" lon="-2.46631">
        <ele>20.7</ele>
        <time>2015-10-12T15:19:41Z</time>
      </trkpt>
      <trkpt lat="48.62879" lon="-2.46654">
        <ele>17.7</ele>
        <time>2015-10-12T15:19:47Z</time>
      </trkpt>
      <trkpt lat="48.6291" lon="-2.46671">
        <ele>13.5</ele>
        <time>2015-10-12T15:19:56Z</time>
      </trkpt>
      <trkpt lat="48.62927" lon="-2.46689">
        <ele>10.6</ele>
        <time>2015-10-12T15:20:05Z</time>
      </trkpt>
      <trkpt lat="48.62951" lon="-2.46717">
        <ele>9.2</ele>
        <time>2015-10-12T15:20:12Z</time>
      </trkpt>
      <trkpt lat="48.62977" lon="-2.46744">
        <ele>8.3</ele>
        <time>2015-10-12T15:20:19Z</time>
      </trkpt>
      <trkpt lat="48.62995" lon="-2.46762">
        <ele>7.8</ele>
        <time>2015-10-12T15:20:25Z</time>
      </trkpt>
      <trkpt lat="48.63027" lon="-2.46743">
        <ele>7.4</ele>
        <time>2015-10-12T15:20:34Z</time>
      </trkpt>
      <trkpt lat="48.63059" lon="-2.46719">
        <ele>7.5</ele>
        <time>2015-10-12T15:20:42Z</time>
      </trkpt>
      <trkpt lat="48.63085" lon="-2.46704">
        <ele>7.5</ele>
        <time>2015-10-12T15:20:48Z</time>
      </trkpt>
      <trkpt lat="48.63103" lon="-2.46694">
        <ele>7.6</ele>
        <time>2015-10-12T15:20:52Z</time>
      </trkpt>
      <trkpt lat="48.63134" lon="-2.4668">
        <ele>7.6</ele>
        <time>2015-10-12T15:20:59Z</time>
      </trkpt>
      <trkpt lat="48.63162" lon="-2.46667">
        <ele>7.6</ele>
        <time>2015-10-12T15:21:05Z</time>
      </trkpt>
      <trkpt lat="48.63181" lon="-2.46659">
        <ele>7.6</ele>
        <time>2015-10-12T15:21:09Z</time>
      </trkpt>
      <trkpt lat="48.63211" lon="-2.4666">
        <ele>7.6</ele>
        <time>2015-10-12T15:21:16Z</time>
      </trkpt>
      <trkpt lat="48.63245" lon="-2.46666">
        <ele>7.7</ele>
        <time>2015-10-12T15:21:25Z</time>
      </trkpt>
      <trkpt lat="48.63277" lon="-2.46662">
        <ele>7.7</ele>
        <time>2015-10-12T15:21:35Z</time>
      </trkpt>
      <trkpt lat="48.63282" lon="-2.46675">
        <ele>7.8</ele>
        <time>2015-10-12T12:56:16Z</time>
      </trkpt>
    </trkseg>
  </trk>
</gpx>